Have a Safe July 4th! 

Flight Track Log - Related Links

Times and Time Zones

All times are in EDT time to prevent confusion due to time zone crossing. See the DAL268 flight status page for this flight to view local times or setup timezone preferences in your user account.

Time Position Orientation Groundspeed Altitude Reporting Facility
EDT Latitude Longitude Course Direction KTS MPH feet Rate Location/Type
Thu 12:37:02 AM 40.6310 -73.7790 270° West 92 106  Level FlightAware ADS-B
Thu 12:37:22 AM 40.6380 -73.7930 303° West 165 190 714 Level FlightAware ADS-B
Thu 12:37:44 AM 40.6470 -73.8130 301° West 180 207 500 1,548 Climbing FlightAware ADS-B
Thu 12:37:53 AM 40.6500 -73.8210 296° West 183 211 800 2,118 Climbing FlightAware ADS-B
Thu 12:38:01 AM 40.6510 -73.8300 278° West 182 209 1,100 1,714 Climbing FlightAware ADS-B
Thu 12:38:21 AM 40.6450 -73.8510 249° West 192 221 1,600 1,286 Climbing FlightAware ADS-B
Thu 12:38:29 AM 40.6400 -73.8570 222° Southwest 199 229 1,700 1,200 Climbing FlightAware ADS-B
Thu 12:38:41 AM 40.6320 -73.8680 226° Southwest 208 239 2,000 1,500 Climbing FlightAware ADS-B
Thu 12:39:01 AM 40.6170 -73.8860 222° Southwest 228 262 2,500 1,154 Climbing FlightAware ADS-B
Thu 12:39:07 AM 40.6110 -73.8920 217° Southwest 235 270 2,500 375 Level FlightAware ADS-B
Thu 12:39:17 AM 40.6000 -73.8970 199° South 245 282 2,600 750 Climbing FlightAware ADS-B
Thu 12:39:47 AM 40.5670 -73.8810 160° South 277 319 3,000 882 Climbing FlightAware ADS-B
Thu 12:39:51 AM 40.5640 -73.8770 135° Southeast 280 322 3,100 1,385 Climbing FlightAware ADS-B
Thu 12:40:13 AM 40.5550 -73.8590 123° Southeast 286 329 3,600 1,935 Climbing FlightAware ADS-B
Thu 12:40:22 AM 40.5500 -73.8280 102° East 298 343 4,100 2,100 Climbing FlightAware ADS-B
Thu 12:40:53 AM 40.5640 -73.7725 72° East 300 345 5,000 1,957 Climbing FlightAware ADS-B
Thu 12:41:08 AM 40.5728 -73.7477 65° Northeast 298 343 5,600 2,323 Climbing FlightAware ADS-B
Thu 12:41:24 AM 40.5816 -73.7211 66° East 300 345 6,200 1,935 Climbing FlightAware ADS-B
Thu 12:41:39 AM 40.5900 -73.6954 67° East 309 356 6,600 2,000 Climbing FlightAware ADS-B
Thu 12:41:54 AM 40.5986 -73.6711 65° Northeast 311 358 7,200 2,211 Climbing FlightAware ADS-B
Thu 12:41:58 AM 40.6013 -73.6628 67° East 311 358 7,300 2,250 Climbing FlightAware ADS-B
Thu 12:42:02 AM 40.6043 -73.6566 57° Northeast 311 358 7,500 2,000 Climbing FlightAware ADS-B
Thu 12:42:07 AM 40.6088 -73.6506 45° Northeast 314 361 7,600 1,500 Climbing FlightAware ADS-B
Thu 12:42:10 AM 40.6122 -73.6453 50° Northeast 314 361 7,700 1,500 Climbing FlightAware ADS-B
Thu 12:42:15 AM 40.6179 -73.6395 38° Northeast 314 361 7,800 1,875 Climbing FlightAware ADS-B
Thu 12:42:26 AM 40.6310 -73.6297 30° Northeast 311 358 8,200 2,057 Climbing FlightAware ADS-B
Thu 12:42:50 AM 40.6625 -73.6080 28° Northeast 313 360 9,000 1,846 Climbing FlightAware ADS-B
Thu 12:43:05 AM 40.6822 -73.5940 28° Northeast 319 367 9,400 1,636 Climbing FlightAware ADS-B
Thu 12:43:45 AM 40.7357 -73.5578 27° Northeast 321 369 10,500 1,214 Climbing FlightAware ADS-B
Thu 12:44:29 AM 40.7990 -73.5170 26° Northeast 368 423 11,100 975 Climbing FlightAware ADS-B
Thu 12:45:05 AM 40.8576 -73.4793 26° Northeast 392 451 11,800 1,273 Climbing FlightAware ADS-B
Thu 12:45:35 AM 40.9070 -73.4480 26° Northeast 410 472 12,500 1,119 Climbing FlightAware ADS-B
Thu 12:46:04 AM 40.9594 -73.4140 26° Northeast 415 478 12,900 1,500 Climbing FlightAware ADS-B
Thu 12:46:23 AM 40.9938 -73.3897 28° Northeast 434 499 13,700 2,123 Climbing FlightAware ADS-B
Thu 12:47:09 AM 41.0650 -73.3130 39° Northeast 444 511 15,200 1,889 Climbing FlightAware ADS-B
Thu 12:47:17 AM 41.0760 -73.2970 48° Northeast 446 513 15,400 1,950 Climbing FlightAware ADS-B
Thu 12:47:49 AM 41.1210 -73.2320 47° Northeast 453 521 16,500 2,118 Climbing FlightAware ADS-B
Thu 12:48:25 AM 41.1720 -73.1560 48° Northeast 455 524 17,800 1,750 Climbing FlightAware ADS-B
Thu 12:49:01 AM 41.2230 -73.0780 49° Northeast 468 539 18,600 1,500 Climbing FlightAware ADS-B
Thu 12:49:37 AM 41.2770 -73.0010 47° Northeast 476 548 19,600 1,606 Climbing FlightAware ADS-B
Thu 12:50:12 AM 41.3300 -72.9290 46° Northeast 483 556 20,500 1,543 Climbing FlightAware ADS-B
Thu 12:50:47 AM 41.3850 -72.8530 46° Northeast 490 564 21,400 1,522 Climbing FlightAware ADS-B
Thu 12:51:19 AM 41.4360 -72.7800 47° Northeast 494 568 22,200 1,391 Climbing FlightAware ADS-B
Thu 12:51:56 AM 41.4930 -72.7000 46° Northeast 499 574 23,000 1,315 Climbing FlightAware ADS-B
Thu 12:52:32 AM 41.5500 -72.6200 46° Northeast 504 580 23,800 846 Climbing FlightAware ADS-B
Thu 12:53:14 AM 41.6090 -72.5380 46° Northeast 506 582 24,100 231 Climbing FlightAware ADS-B
Thu 12:53:50 AM 41.6590 -72.4690 46° Northeast 506 582 24,100 1,343 Level FlightAware ADS-B
Thu 12:54:21 AM 41.7290 -72.3680 47° Northeast 528 608 25,600 1,440 Climbing FlightAware ADS-B
Thu 12:55:30 AM 41.7950 -72.2720 47° Northeast 532 612 26,500 1,290 Climbing FlightAware ADS-B
Thu 12:56:08 AM 41.9040 -72.1170 47° Northeast 528 608 27,900 2,029 Climbing FlightAware ADS-B
Thu 12:56:38 AM 41.9610 -72.0360 47° Northeast 525 604 28,800 1,457 Climbing FlightAware ADS-B
Thu 12:57:18 AM 42.0270 -71.9420 47° Northeast 524 603 29,600 1,105 Climbing FlightAware ADS-B
Thu 12:57:54 AM 42.0860 -71.8560 47° Northeast 525 604 30,200 1,000 Climbing FlightAware ADS-B
Thu 12:58:30 AM 42.1470 -71.7680 47° Northeast 527 606 30,800 971 Climbing FlightAware ADS-B
Thu 12:59:02 AM 42.1990 -71.6920 47° Northeast 529 609 31,300 943 Climbing FlightAware ADS-B
Thu 12:59:40 AM 42.2630 -71.5990 47° Northeast 528 608 31,900 1,034 Climbing FlightAware ADS-B
Thu 01:00:00 AM 42.2960 -71.5500 48° Northeast 527 606 32,300 943 Climbing FlightAware ADS-B
Thu 01:00:50 AM 42.3800 -71.4280 47° Northeast 528 608 33,000 506 Climbing FlightAware ADS-B
Thu 01:01:23 AM 42.4330 -71.3500 47° Northeast 530 610 33,000  Level FlightAware ADS-B
Thu 01:02:00 AM 42.4940 -71.2610 47° Northeast 528 608 33,000  Level FlightAware ADS-B
Thu 01:02:14 AM 42.5150 -71.2290 48° Northeast 527 606 33,000  Level FlightAware ADS-B
Thu 01:03:06 AM 42.6020 -71.1010 47° Northeast 525 604 33,000  Level FlightAware ADS-B
Thu 01:03:38 AM 42.6550 -71.0210 48° Northeast 525 604 33,000  Level FlightAware ADS-B
Thu 01:04:14 AM 42.7150 -70.9330 47° Northeast 526 605 33,000  Level FlightAware ADS-B
Thu 01:04:50 AM 42.7730 -70.8460 48° Northeast 527 606 33,000  Level FlightAware ADS-B
Thu 01:05:22 AM 42.8260 -70.7660 48° Northeast 528 608 33,000  Level FlightAware ADS-B
Thu 01:05:58 AM 42.8850 -70.6770 48° Northeast 528 608 33,000  Level FlightAware ADS-B
Thu 01:06:35 AM 42.9450 -70.5880 47° Northeast 528 608 33,000  Level FlightAware ADS-B
Thu 01:07:08 AM 43.0000 -70.5040 48° Northeast 528 608 33,000  Level FlightAware ADS-B
Thu 01:07:40 AM 43.0520 -70.4260 48° Northeast 529 609 33,000  Level FlightAware ADS-B
Thu 01:08:18 AM 43.1120 -70.3340 48° Northeast 529 609 33,000  Level FlightAware ADS-B
Thu 01:08:52 AM 43.1690 -70.2470 48° Northeast 529 609 33,000  Level FlightAware ADS-B
Thu 01:09:23 AM 43.2210 -70.1670 48° Northeast 529 609 33,000  Level FlightAware ADS-B
Thu 01:10:00 AM 43.2750 -70.0850 48° Northeast 530 610 33,000  Level FlightAware ADS-B
Thu 01:10:38 AM 43.3430 -69.9790 49° Northeast 531 611 33,000  Level FlightAware ADS-B
Thu 01:11:13 AM 43.4010 -69.8910 48° Northeast 532 612 33,000  Level FlightAware ADS-B
Thu 01:11:49 AM 43.4570 -69.8040 48° Northeast 534 615 33,000  Level FlightAware ADS-B
Thu 01:12:37 AM 43.5270 -69.6960 48° Northeast 534 615 33,000  Level FlightAware ADS-B
Thu 01:13:22 AM 43.6000 -69.5820 48° Northeast 536 617 33,000  Level FlightAware ADS-B
Thu 01:13:58 AM 43.6510 -69.5040 48° Northeast 536 617 33,000  Level FlightAware ADS-B
Thu 01:14:30 AM 43.7230 -69.3890 49° Northeast 540 621 33,000  Level FlightAware ADS-B
Thu 01:15:11 AM 43.7850 -69.2900 49° Northeast 540 621 33,000  Level FlightAware ADS-B
Thu 01:15:50 AM 43.8410 -69.2040 48° Northeast 540 621 33,000  Level FlightAware ADS-B
Thu 01:16:27 AM 43.8930 -69.1230 48° Northeast 540 621 33,000  Level FlightAware ADS-B
Thu 01:17:05 AM 43.9470 -69.0400 48° Northeast 540 621 33,000  Level FlightAware ADS-B
Thu 01:17:42 AM 44.0000 -68.9590 48° Northeast 540 621 33,000  Level FlightAware ADS-B
Thu 01:18:25 AM 44.1100 -68.7720 51° Northeast 541 623 33,000  Level FlightAware ADS-B
Thu 01:19:00 AM 44.1650 -68.6830 49° Northeast 540 621 33,000  Level FlightAware ADS-B
Thu 01:19:37 AM 44.2290 -68.5810 49° Northeast 541 623 33,000  Level FlightAware ADS-B
Thu 01:20:09 AM 44.2810 -68.4960 49° Northeast 541 623 33,000  Level FlightAware ADS-B
Thu 01:20:47 AM 44.3420 -68.3960 50° Northeast 541 623 33,000  Level FlightAware ADS-B
Thu 01:21:24 AM 44.4020 -68.2980 49° Northeast 542 624 33,000  Level FlightAware ADS-B
Thu 01:21:57 AM 44.4560 -68.2100 49° Northeast 542 624 33,000  Level FlightAware ADS-B
Thu 01:22:33 AM 44.5150 -68.1130 50° Northeast 541 623 33,000  Level FlightAware ADS-B
Thu 01:23:09 AM 44.5740 -68.0160 49° Northeast 541 623 33,000  Level FlightAware ADS-B
Thu 01:23:42 AM 44.6260 -67.9310 49° Northeast 542 624 33,000  Level FlightAware ADS-B
Thu 01:24:18 AM 44.6840 -67.8330 50° Northeast 541 623 33,000  Level FlightAware ADS-B
Thu 01:24:54 AM 44.7430 -67.7360 49° Northeast 540 621 33,000  Level FlightAware ADS-B
Thu 01:25:29 AM 44.7990 -67.6420 50° Northeast 540 621 33,000  Level FlightAware ADS-B
Thu 01:26:00 AM 44.8470 -67.5620 50° Northeast 535 616 33,000  Level FlightAware ADS-B
Thu 01:26:35 AM 44.9030 -67.4670 50° Northeast 534 615 33,000  Level FlightAware ADS-B
Thu 01:27:10 AM 44.9590 -67.3730 50° Northeast 533 613 33,000  Level FlightAware ADS-B
Thu 01:27:46 AM 45.0160 -67.2770 50° Northeast 534 615 33,000  Level FlightAware ADS-B
Thu 01:28:20 AM 45.0700 -67.1840 51° Northeast 533 613 33,000  Level FlightAware ADS-B
Thu 01:29:00 AM 45.1340 -67.0750 50° Northeast 534 615 33,000  Level FlightAware ADS-B
Thu 01:29:30 AM 45.1810 -66.9940 51° Northeast 534 615 33,000  Level FlightAware ADS-B
Thu 01:30:05 AM 45.2380 -66.8970 50° Northeast 536 617 33,000  Level FlightAware ADS-B
Thu 01:30:40 AM 45.2920 -66.8030 51° Northeast 537 618 33,000  Level FlightAware ADS-B
Thu 01:31:20 AM 45.3580 -66.6910 50° Northeast 538 619 33,000  Level FlightAware ADS-B
Thu 01:31:49 AM 45.4040 -66.6100 51° Northeast 537 618 33,000  Level FlightAware ADS-B
Thu 01:32:25 AM 45.4600 -66.5130 51° Northeast 537 618 33,000  Level FlightAware ADS-B
Thu 01:33:01 AM 45.5160 -66.4150 51° Northeast 541 623 33,000  Level FlightAware ADS-B
Thu 01:33:36 AM 45.5720 -66.3170 51° Northeast 540 621 33,000  Level FlightAware ADS-B
Thu 01:34:10 AM 45.6270 -66.2210 51° Northeast 540 621 33,000  Level FlightAware ADS-B
Thu 01:34:51 AM 45.6910 -66.1080 51° Northeast 541 623 33,000  Level FlightAware ADS-B
Thu 01:35:25 AM 45.7450 -66.0120 51° Northeast 541 623 33,000  Level FlightAware ADS-B
Thu 01:36:06 AM 45.8080 -65.9000 51° Northeast 541 623 33,000  Level FlightAware ADS-B
Thu 01:36:41 AM 45.8610 -65.8060 51° Northeast 540 621 33,000  Level FlightAware ADS-B
Thu 01:37:14 AM 45.9160 -65.7080 51° Northeast 540 621 33,000  Level FlightAware ADS-B
Thu 01:37:49 AM 45.9710 -65.6090 51° Northeast 541 623 33,000  Level FlightAware ADS-B
Thu 01:38:25 AM 46.0260 -65.5090 52° Northeast 540 621 33,000  Level FlightAware ADS-B
Thu 01:39:07 AM 46.0860 -65.4020 51° Northeast 541 623 33,000  Level FlightAware ADS-B
Thu 01:39:43 AM 46.1340 -65.3170 51° Northeast 541 623 33,000  Level FlightAware ADS-B
Thu 01:40:22 AM 46.1860 -65.2230 51° Northeast 541 623 33,000  Level FlightAware ADS-B
Thu 01:41:08 AM 46.2480 -65.1130 51° Northeast 541 623 33,000  Level FlightAware ADS-B
Thu 01:41:46 AM 46.2990 -65.0230 51° Northeast 541 623 33,000  Level FlightAware ADS-B
Thu 01:41:58 AM 46.3150 -64.9940 51° Northeast 541 623 33,000  Level FlightAware ADS-B
Thu 01:42:56 AM 46.3920 -64.8550 51° Northeast 541 623 33,000  Level FlightAware ADS-B
Thu 01:43:32 AM 46.4400 -64.7690 51° Northeast 541 623 33,000  Level FlightAware ADS-B
Thu 01:44:08 AM 46.4890 -64.6820 51° Northeast 541 623 33,000  Level FlightAware ADS-B
Thu 01:44:44 AM 46.5370 -64.5960 51° Northeast 541 623 33,000  Level FlightAware ADS-B
Thu 01:45:20 AM 46.5850 -64.5090 51° Northeast 541 623 33,000  Level FlightAware ADS-B
Thu 01:45:56 AM 46.6330 -64.4220 51° Northeast 541 623 33,000  Level FlightAware ADS-B
Thu 01:46:32 AM 46.6810 -64.3360 51° Northeast 541 623 33,000  Level FlightAware ADS-B
Thu 01:47:08 AM 46.7300 -64.2490 51° Northeast 541 623 33,000  Level FlightAware ADS-B
Thu 01:47:44 AM 46.7780 -64.1620 51° Northeast 541 623 33,000  Level FlightAware ADS-B
Thu 01:48:20 AM 46.8260 -64.0750 51° Northeast 541 623 33,000  Level FlightAware ADS-B
Thu 01:48:51 AM 46.9667 -63.7333 51° Northeast 530 610 33,000  Level Gander Center
Thu 01:49:51 AM 47.0333 -63.5667 60° Northeast 530 610 33,000  Level Gander Center
Thu 01:50:51 AM 47.1500 -63.3667 49° Northeast 540 621 33,000  Level Gander Center
Thu 01:51:51 AM 47.2333 -63.2000 54° Northeast 530 610 33,000  Level Gander Center
Thu 01:52:51 AM 47.3167 -63.0333 54° Northeast 530 610 33,000  Level Gander Center
Thu 01:53:51 AM 47.4000 -62.8667 54° Northeast 540 621 33,000  Level Gander Center
Thu 01:54:51 AM 47.4833 -62.6833 56° Northeast 530 610 33,000  Level Gander Center
Thu 01:55:47 AM 47.5667 -62.5167 53° Northeast 540 621 33,000  Level Gander Center
Thu 01:56:47 AM 47.6667 -62.3167 53° Northeast 540 621 33,000  Level Gander Center
Thu 01:57:47 AM 47.7667 -62.1500 48° Northeast 540 621 33,000  Level Gander Center
Thu 01:58:47 AM 47.8500 -61.9833 53° Northeast 530 610 33,000  Level Gander Center
Thu 01:59:47 AM 47.9333 -61.7833 58° Northeast 530 610 33,000  Level Gander Center
Thu 02:00:47 AM 48.0167 -61.6000 56° Northeast 540 621 33,000  Level Gander Center
Thu 02:01:47 AM 48.1000 -61.4333 53° Northeast 530 610 33,000  Level Gander Center
Thu 02:02:47 AM 48.1833 -61.2500 56° Northeast 530 610 33,000  Level Gander Center
Thu 02:03:47 AM 48.2667 -61.0833 53° Northeast 530 610 33,000  Level Gander Center
Thu 02:04:47 AM 48.3667 -60.8833 53° Northeast 530 610 33,000  Level Gander Center
Thu 02:05:47 AM 48.4500 -60.7000 56° Northeast 530 610 33,000  Level Gander Center
Thu 02:06:47 AM 48.5333 -60.5333 53° Northeast 540 621 33,000  Level Gander Center
Thu 02:07:47 AM 48.6167 -60.3500 55° Northeast 540 621 33,000  Level Gander Center
Thu 02:08:47 AM 48.7000 -60.1500 58° Northeast 540 621 33,000  Level Gander Center
Thu 02:09:47 AM 48.7667 -59.9667 61° Northeast 530 610 33,000  Level Gander Center
Thu 02:10:47 AM 48.8500 -59.7833 55° Northeast 530 610 33,000  Level Gander Center
Thu 02:11:47 AM 48.9500 -59.6000 50° Northeast 530 610 33,000  Level Gander Center
Thu 02:12:47 AM 49.0333 -59.4167 55° Northeast 530 610 33,000  Level Gander Center
Thu 02:13:47 AM 49.1167 -59.2333 55° Northeast 520 598 33,000  Level Gander Center
Thu 02:14:47 AM 49.2000 -59.0500 55° Northeast 520 598 33,000  Level Gander Center
Thu 02:15:47 AM 49.2667 -58.8500 63° Northeast 520 598 33,000  Level Gander Center
Thu 02:16:47 AM 49.3500 -58.6667 55° Northeast 520 598 33,000  Level Gander Center
Thu 02:17:47 AM 49.4333 -58.4833 55° Northeast 530 610 33,000  Level Gander Center
Thu 02:18:47 AM 49.5167 -58.3000 55° Northeast 530 610 33,000  Level Gander Center
Thu 02:19:47 AM 49.5833 -58.1167 61° Northeast 530 610 33,000  Level Gander Center
Thu 02:21:47 AM 49.7333 -57.7167 60° Northeast 530 610 33,000  Level Gander Center
Thu 02:22:47 AM 49.8000 -57.5000 64° Northeast 540 621 33,000  Level Gander Center
Thu 02:23:47 AM 49.8667 -57.2833 64° Northeast 530 610 33,000  Level Gander Center
Thu 02:24:47 AM 49.9500 -57.1000 55° Northeast 530 610 33,000  Level Gander Center
Thu 02:25:47 AM 50.0167 -56.8833 64° Northeast 530 610 33,000  Level Gander Center
Thu 02:26:47 AM 50.0833 -56.6667 64° Northeast 530 610 33,000  Level Gander Center
Thu 02:27:47 AM 50.1500 -56.4500 64° Northeast 530 610 33,000  Level Gander Center
Thu 02:28:47 AM 50.2167 -56.2667 60° Northeast 530 610 33,000  Level Gander Center
Thu 02:29:47 AM 50.2667 -56.0667 69° East 530 610 33,000  Level Gander Center
Thu 02:30:47 AM 50.3500 -55.8333 61° Northeast 530 610 33,000  Level Gander Center
Thu 02:31:47 AM 50.4000 -55.6333 69° East 540 621 33,000  Level Gander Center
Thu 02:32:51 AM 50.4667 -55.4167 64° Northeast 540 621 33,000  Level Gander Center
Thu 02:33:51 AM 50.5500 -55.2000 59° Northeast 540 621 33,000  Level Gander Center
Thu 02:34:51 AM 50.6000 -54.9833 70° East 540 621 33,000  Level Gander Center
Thu 02:41:08 AM 51.0260 -53.6530 65° Northeast 543 625 33,000  Level FlightAware ADS-B
Thu 02:41:50 AM 51.0660 -53.5180 65° Northeast 542 624 33,000  Level FlightAware ADS-B
Thu 02:42:50 AM 51.1200 -53.3340 65° Northeast 542 624 33,000  Level FlightAware ADS-B
Thu 02:43:26 AM 51.1520 -53.2230 65° Northeast 542 624 33,000  Level FlightAware ADS-B
Thu 02:44:02 AM 51.1840 -53.1120 65° Northeast 542 624 33,000  Level FlightAware ADS-B
Thu 02:44:38 AM 51.2170 -53.0010 65° Northeast 542 624 33,000  Level FlightAware ADS-B
Thu 02:45:15 AM 51.2500 -52.8870 65° Northeast 542 624 33,000  Level FlightAware ADS-B
Thu 02:45:52 AM 51.2830 -52.7720 65° Northeast 542 624 33,000  Level FlightAware ADS-B
Thu 02:46:29 AM 51.3170 -52.6580 64° Northeast 542 624 33,000  Level FlightAware ADS-B
Thu 02:47:05 AM 51.3490 -52.5470 65° Northeast 542 624 33,000  Level FlightAware ADS-B
Thu 02:47:41 AM 51.3810 -52.4350 65° Northeast 542 624 33,000  Level FlightAware ADS-B
Thu 02:48:17 AM 51.4140 -52.3240 64° Northeast 542 624 33,000  Level FlightAware ADS-B
Thu 02:49:07 AM 51.5120 -51.9030 69° East 545 627 33,000  Level FlightAware ADS-B
Thu 02:49:46 AM 51.5450 -51.7800 67° East 545 627 33,000  Level FlightAware ADS-B
Thu 02:50:22 AM 51.5750 -51.6660 67° East 545 627 33,000  Level FlightAware ADS-B
Thu 02:50:58 AM 51.6050 -51.5510 67° East 545 627 33,000  Level FlightAware ADS-B
Thu 02:51:34 AM 51.6350 -51.4370 67° East 545 627 33,000  Level FlightAware ADS-B
Thu 02:52:10 AM 51.6650 -51.3220 67° East 545 627 33,000  Level FlightAware ADS-B
Thu 02:52:46 AM 51.6950 -51.2080 67° East 545 627 33,000  Level FlightAware ADS-B
Thu 02:53:22 AM 51.7260 -51.0930 66° East 545 627 33,000  Level FlightAware ADS-B
Thu 02:53:58 AM 51.7560 -50.9780 67° East 545 627 33,000  Level FlightAware ADS-B
Thu 02:54:34 AM 51.7860 -50.8640 67° East 545 627 33,000  Level FlightAware ADS-B
Thu 02:55:10 AM 51.8160 -50.7490 67° East 545 627 33,000  Level FlightAware ADS-B
Thu 02:55:46 AM 51.8460 -50.6340 67° East 545 627 33,000  Level FlightAware ADS-B
Thu 02:56:06 AM 51.9167 -50.2500 68° East 540 621 33,000  Level Gander Center
Thu 02:56:22 AM 51.8760 -50.5190 67° East 545 627 33,000  Level FlightAware ADS-B
Thu 02:56:55 AM 51.9667 -50.0667 66° East 540 621 33,000  Level Gander Center
Thu 02:56:58 AM 51.9060 -50.4040 67° East 545 627 33,000  Level FlightAware ADS-B
Thu 02:57:34 AM 51.9360 -50.2890 67° East 545 627 33,000  Level FlightAware ADS-B
Thu 02:57:55 AM 52.0167 -49.8667 68° East 550 633 33,000  Level Gander Center
Thu 02:58:10 AM 51.9670 -50.1730 67° East 545 627 33,000  Level FlightAware ADS-B
Thu 02:58:46 AM 51.9970 -50.0580 67° East 545 627 33,000 26 Level FlightAware ADS-B
Thu 03:00:00 AM 52.1207 -49.4523 68° East  Level FlightAware Approximate
Thu 03:01:00 AM 52.1089 -49.5651 68° East  Level FlightAware Approximate
Thu 03:07:00 AM 52.4912 -47.9091 68° East  Level FlightAware Approximate
Thu 03:08:00 AM 52.5425 -47.6865 69° East  Level FlightAware Approximate
Thu 03:09:00 AM 52.5933 -47.4635 69° East  Level FlightAware Approximate
Thu 03:10:00 AM 52.6438 -47.2399 70° East  Level FlightAware Approximate
Thu 03:11:00 AM 52.6938 -47.0158 70° East  Level FlightAware Approximate
Thu 03:12:00 AM 52.7434 -46.7911 70° East  Level FlightAware Approximate
Thu 03:13:00 AM 52.7925 -46.5660 70° East  Level FlightAware Approximate
Thu 03:14:00 AM 52.8413 -46.3404 70° East  Level FlightAware Approximate
Thu 03:15:00 AM 52.8896 -46.1143 70° East  Level FlightAware Approximate
Thu 03:16:00 AM 52.9375 -45.8876 71° East  Level FlightAware Approximate
Thu 03:17:00 AM 52.9849 -45.6605 71° East  Level FlightAware Approximate
Thu 03:18:00 AM 53.0320 -45.4328 71° East  Level FlightAware Approximate
Thu 03:19:00 AM 53.0785 -45.2047 71° East  Level FlightAware Approximate
Thu 03:20:00 AM 53.1247 -44.9761 71° East  Level FlightAware Approximate
Thu 03:21:00 AM 53.1704 -44.7470 72° East  Level FlightAware Approximate
Thu 03:22:00 AM 53.2156 -44.5174 72° East  Level FlightAware Approximate
Thu 03:23:00 AM 53.2605 -44.2873 72° East  Level FlightAware Approximate
Thu 03:24:00 AM 53.3048 -44.0567 72° East  Level FlightAware Approximate
Thu 03:25:00 AM 53.3488 -43.8257 72° East  Level FlightAware Approximate
Thu 03:26:00 AM 53.3923 -43.5942 72° East  Level FlightAware Approximate
Thu 03:27:00 AM 53.4353 -43.3622 73° East  Level FlightAware Approximate
Thu 03:28:00 AM 53.4779 -43.1297 73° East  Level FlightAware Approximate
Thu 03:29:00 AM 53.5200 -42.8968 73° East  Level FlightAware Approximate
Thu 03:30:00 AM 53.5617 -42.6634 73° East  Level FlightAware Approximate
Thu 03:31:00 AM 53.6029 -42.4296 73° East  Level FlightAware Approximate
Thu 03:32:00 AM 53.6437 -42.1953 74° East  Level FlightAware Approximate
Thu 03:33:00 AM 53.6840 -41.9606 74° East  Level FlightAware Approximate
Thu 03:34:00 AM 53.7239 -41.7254 74° East  Level FlightAware Approximate
Thu 03:35:00 AM 53.7633 -41.4898 74° East  Level FlightAware Approximate
Thu 03:36:00 AM 53.8022 -41.2537 74° East  Level FlightAware Approximate
Thu 03:37:00 AM 53.8406 -41.0172 75° East  Level FlightAware Approximate
Thu 03:38:00 AM 53.8787 -40.7802 75° East  Level FlightAware Approximate
Thu 03:39:00 AM 53.9162 -40.5429 75° East  Level FlightAware Approximate
Thu 03:40:00 AM 53.9532 -40.3051 75° East  Level FlightAware Approximate
Thu 03:41:00 AM 53.9898 -40.0669 75° East  Level FlightAware Approximate
Thu 03:42:00 AM 54.0072 -39.8227 86° East  Level FlightAware Approximate
Thu 03:43:00 AM 54.0168 -39.5768 86° East  Level FlightAware Approximate
Thu 03:44:00 AM 54.0260 -39.3308 86° East  Level FlightAware Approximate
Thu 03:45:00 AM 54.0346 -39.0847 86° East  Level FlightAware Approximate
Thu 03:46:00 AM 54.0427 -38.8385 87° East  Level FlightAware Approximate
Thu 03:47:00 AM 54.0503 -38.5922 87° East  Level FlightAware Approximate
Thu 03:48:00 AM 54.0574 -38.3458 87° East  Level FlightAware Approximate
Thu 03:49:00 AM 54.0640 -38.0993 87° East  Level FlightAware Approximate
Thu 03:50:00 AM 54.0700 -37.8527 87° East  Level FlightAware Approximate
Thu 03:51:00 AM 54.0756 -37.6061 88° East  Level FlightAware Approximate
Thu 03:52:00 AM 54.0807 -37.3594 88° East  Level FlightAware Approximate
Thu 03:53:00 AM 54.0853 -37.1127 88° East  Level FlightAware Approximate
Thu 03:54:00 AM 54.0894 -36.8659 88° East  Level FlightAware Approximate
Thu 03:55:00 AM 54.0929 -36.6191 88° East  Level FlightAware Approximate
Thu 03:56:00 AM 54.0960 -36.3722 89° East  Level FlightAware Approximate
Thu 03:57:00 AM 54.0986 -36.1253 89° East  Level FlightAware Approximate
Thu 03:58:00 AM 54.1006 -35.8783 89° East  Level FlightAware Approximate
Thu 03:59:00 AM 54.1022 -35.6314 89° East  Level FlightAware Approximate
Thu 04:00:00 AM 54.1032 -35.3844 89° East  Level FlightAware Approximate
Thu 04:01:00 AM 54.1037 -35.1374 90° East  Level FlightAware Approximate
Thu 04:02:00 AM 54.1038 -34.8904 90° East  Level FlightAware Approximate
Thu 04:03:00 AM 54.1033 -34.6435 90° East  Level FlightAware Approximate
Thu 04:04:00 AM 54.1023 -34.3965 90° East  Level FlightAware Approximate
Thu 04:05:00 AM 54.1008 -34.1495 90° East  Level FlightAware Approximate
Thu 04:06:00 AM 54.0988 -33.9026 91° East  Level FlightAware Approximate
Thu 04:07:00 AM 54.0963 -33.6557 91° East  Level FlightAware Approximate
Thu 04:08:00 AM 54.0933 -33.4088 91° East  Level FlightAware Approximate
Thu 04:09:00 AM 54.0898 -33.1619 91° East  Level FlightAware Approximate
Thu 04:10:00 AM 54.0858 -32.9151 91° East  Level FlightAware Approximate
Thu 04:11:00 AM 54.0813 -32.6684 92° East  Level FlightAware Approximate
Thu 04:12:00 AM 54.0762 -32.4217 92° East  Level FlightAware Approximate
Thu 04:13:00 AM 54.0707 -32.1751 92° East  Level FlightAware Approximate
Thu 04:14:00 AM 54.0647 -31.9285 92° East  Level FlightAware Approximate
Thu 04:15:00 AM 54.0582 -31.6820 92° East  Level FlightAware Approximate
Thu 04:16:00 AM 54.0511 -31.4356 93° East  Level FlightAware Approximate
Thu 04:17:00 AM 54.0436 -31.1893 93° East  Level FlightAware Approximate
Thu 04:18:00 AM 54.0355 -30.9431 93° East  Level FlightAware Approximate
Thu 04:19:00 AM 54.0270 -30.6970 93° East  Level FlightAware Approximate
Thu 04:20:00 AM 54.0179 -30.4510 93° East  Level FlightAware Approximate
Thu 04:21:00 AM 54.0084 -30.2057 94° East  Level FlightAware Approximate
Thu 04:22:00 AM 53.9978 -29.9605 95° East  Level FlightAware Approximate
Thu 04:23:00 AM 53.9836 -29.7160 96° East  Level FlightAware Approximate
Thu 04:24:00 AM 53.9689 -29.4717 96° East  Level FlightAware Approximate
Thu 04:25:00 AM 53.9538 -29.2275 96° East  Level FlightAware Approximate
Thu 04:26:00 AM 53.9381 -28.9835 96° East  Level FlightAware Approximate
Thu 04:27:00 AM 53.9220 -28.7397 96° East  Level FlightAware Approximate
Thu 04:28:00 AM 53.9053 -28.4961 97° East  Level FlightAware Approximate
Thu 04:29:00 AM 53.8882 -28.2527 97° East  Level FlightAware Approximate
Thu 04:30:00 AM 53.8706 -28.0094 97° East  Level FlightAware Approximate
Thu 04:31:00 AM 53.8525 -27.7664 97° East  Level FlightAware Approximate
Thu 04:32:00 AM 53.8339 -27.5236 97° East  Level FlightAware Approximate
Thu 04:33:00 AM 53.8148 -27.2810 97° East  Level FlightAware Approximate
Thu 04:34:00 AM 53.7952 -27.0387 98° East  Level FlightAware Approximate
Thu 04:35:00 AM 53.7752 -26.7966 98° East  Level FlightAware Approximate
Thu 04:36:00 AM 53.7546 -26.5547 98° East  Level FlightAware Approximate
Thu 04:37:00 AM 53.7335 -26.3130 98° East  Level FlightAware Approximate
Thu 04:38:00 AM 53.7120 -26.0716 98° East  Level FlightAware Approximate
Thu 04:39:00 AM 53.6900 -25.8305 99° East  Level FlightAware Approximate
Thu 04:40:00 AM 53.6675 -25.5896 99° East  Level FlightAware Approximate
Thu 04:41:00 AM 53.6445 -25.3489 99° East  Level FlightAware Approximate
Thu 04:42:00 AM 53.6211 -25.1085 99° East  Level FlightAware Approximate
Thu 04:43:00 AM 53.5971 -24.8684 99° East  Level FlightAware Approximate
Thu 04:44:00 AM 53.5727 -24.6286 100° East  Level FlightAware Approximate
Thu 04:45:00 AM 53.5478 -24.3890 100° East  Level FlightAware Approximate
Thu 04:46:00 AM 53.5224 -24.1498 100° East  Level FlightAware Approximate
Thu 04:47:00 AM 53.4965 -23.9108 100° East  Level FlightAware Approximate
Thu 04:48:00 AM 53.4702 -23.6721 100° East  Level FlightAware Approximate
Thu 04:49:00 AM 53.4434 -23.4337 101° East  Level FlightAware Approximate
Thu 04:50:00 AM 53.4161 -23.1956 101° East  Level FlightAware Approximate
Thu 04:51:00 AM 53.3884 -22.9579 101° East  Level FlightAware Approximate
Thu 04:52:00 AM 53.3601 -22.7204 101° East  Level FlightAware Approximate
Thu 04:53:00 AM 53.3314 -22.4832 101° East  Level FlightAware Approximate
Thu 04:54:00 AM 53.3022 -22.2464 102° East  Level FlightAware Approximate
Thu 04:55:00 AM 53.2726 -22.0099 102° East  Level FlightAware Approximate
Thu 04:56:00 AM 53.2425 -21.7738 102° East  Level FlightAware Approximate
Thu 04:57:00 AM 53.2119 -21.5379 102° East  Level FlightAware Approximate
Thu 04:58:00 AM 53.1809 -21.3024 102° East  Level FlightAware Approximate
Thu 04:59:00 AM 53.1494 -21.0673 103° East  Level FlightAware Approximate
Thu 05:00:00 AM 53.1174 -20.8325 103° East  Level FlightAware Approximate
Thu 05:01:00 AM 53.0850 -20.5980 103° East  Level FlightAware Approximate
Thu 05:02:00 AM 53.0521 -20.3639 103° East  Level FlightAware Approximate
Thu 05:03:00 AM 53.0188 -20.1302 103° East  Level FlightAware Approximate
Thu 05:04:00 AM 52.9997 -19.8938 90° East  Level FlightAware Approximate
Thu 05:05:00 AM 52.9987 -19.6538 90° East  Level FlightAware Approximate
Thu 05:06:00 AM 52.9972 -19.4138 90° East  Level FlightAware Approximate
Thu 05:07:00 AM 52.9952 -19.1738 91° East  Level FlightAware Approximate
Thu 05:08:00 AM 52.9928 -18.9338 91° East  Level FlightAware Approximate
Thu 05:09:00 AM 52.9898 -18.6939 91° East  Level FlightAware Approximate
Thu 05:10:00 AM 52.9864 -18.4540 91° East  Level FlightAware Approximate
Thu 05:11:00 AM 52.9825 -18.2142 91° East  Level FlightAware Approximate
Thu 05:12:00 AM 52.9781 -17.9744 92° East  Level FlightAware Approximate
Thu 05:13:00 AM 52.9732 -17.7346 92° East  Level FlightAware Approximate
Thu 05:14:00 AM 52.9679 -17.4949 92° East  Level FlightAware Approximate
Thu 05:15:00 AM 52.9620 -17.2553 92° East  Level FlightAware Approximate
Thu 05:16:00 AM 52.9557 -17.0157 92° East  Level FlightAware Approximate
Thu 05:17:00 AM 52.9489 -16.7762 93° East  Level FlightAware Approximate
Thu 05:18:00 AM 52.9416 -16.5368 93° East  Level FlightAware Approximate
Thu 05:19:00 AM 52.9339 -16.2974 93° East  Level FlightAware Approximate
Thu 05:20:00 AM 52.9256 -16.0582 93° East  Level FlightAware Approximate
Thu 05:21:00 AM 52.9169 -15.8190 93° East  Level FlightAware Approximate
Thu 05:22:00 AM 52.9077 -15.5800 94° East  Level FlightAware Approximate
Thu 05:23:00 AM 52.8980 -15.3410 94° East  Level FlightAware Approximate
Thu 05:24:00 AM 52.8878 -15.1022 94° East  Level FlightAware Approximate
Thu 05:25:00 AM 52.8777 -14.8638 94° East  Level FlightAware Approximate
Thu 05:26:00 AM 52.8675 -14.6255 94° East  Level FlightAware Approximate
Thu 05:27:00 AM 52.8568 -14.3873 94° East  Level FlightAware Approximate
Thu 05:28:00 AM 52.8457 -14.1492 94° East  Level FlightAware Approximate
Thu 05:29:00 AM 52.8340 -13.9113 95° East  Level FlightAware Approximate
Thu 05:30:00 AM 52.8219 -13.6735 95° East  Level FlightAware Approximate
Thu 05:31:00 AM 52.8094 -13.4358 95° East  Level FlightAware Approximate
Thu 05:32:00 AM 52.7963 -13.1982 95° East  Level FlightAware Approximate
Thu 05:33:00 AM 52.7828 -12.9608 95° East  Level FlightAware Approximate
Thu 05:33:38 AM 52.8400 -12.6680 95° East 510 587 37,000  Level FlightAware ADS-B
Thu 05:34:00 AM 52.7688 -12.7236 95° East  Level FlightAware Approximate
Thu 05:34:18 AM 52.8280 -12.5070 97° East 510 587 37,000  Level FlightAware ADS-B
Thu 05:35:03 AM 52.8140 -12.3390 98° East 510 587 37,000  Level FlightAware ADS-B
Thu 05:35:36 AM 52.8030 -12.2000 97° East 512 589 37,000  Level FlightAware ADS-B
Thu 05:36:16 AM 52.7910 -12.0560 98° East 513 590 37,000  Level FlightAware ADS-B
Thu 05:36:46 AM 52.7800 -11.9230 98° East 516 594 37,000  Level FlightAware ADS-B
Thu 05:37:21 AM 52.7690 -11.7890 98° East 516 594 37,000  Level FlightAware ADS-B
Thu 05:37:56 AM 52.7570 -11.6500 98° East 520 598 37,000  Level FlightAware ADS-B
Thu 05:38:31 AM 52.7460 -11.5150 98° East 521 600 37,000  Level FlightAware ADS-B
Thu 05:39:06 AM 52.7350 -11.3900 98° East 523 602 37,000  Level FlightAware ADS-B
Thu 05:39:41 AM 52.7210 -11.2400 99° East 524 603 37,000  Level FlightAware ADS-B
Thu 05:39:56 AM 52.7170 -11.1900 98° East 525 604 37,000  Level FlightAware ADS-B
Thu 05:41:16 AM 52.6870 -10.8590 98° East 527 606 37,000  Level FlightAware ADS-B
Thu 05:41:51 AM 52.6740 -10.7240 99° East 528 608 37,000  Level FlightAware ADS-B
Thu 05:42:21 AM 52.6630 -10.6030 98° East 526 605 37,000  Level FlightAware ADS-B
Thu 05:42:26 AM 52.6610 -10.5830 99° East 526 605 37,000  Level FlightAware ADS-B
Thu 05:43:26 AM 52.6380 -10.3470 99° East 522 601 37,000  Level FlightAware ADS-B
Thu 05:43:58 AM 52.6250 -10.2160 99° East 519 597 37,000  Level FlightAware ADS-B
Thu 05:44:36 AM 52.6110 -10.0750 99° East 517 595 37,000  Level FlightAware ADS-B
Thu 05:45:13 AM 52.5980 -9.9410 99° East 515 593 37,000  Level FlightAware ADS-B
Thu 05:45:47 AM 52.5840 -9.8020 99° East 513 590 37,000  Level FlightAware ADS-B
Thu 05:46:18 AM 52.5710 -9.6780 100° East 512 589 37,000  Level FlightAware ADS-B
Thu 05:47:02 AM 52.5540 -9.5140 100° East 513 590 37,000  Level FlightAware ADS-B
Thu 05:47:27 AM 52.5440 -9.4150 99° East 515 593 37,000  Level FlightAware ADS-B
Thu 05:48:12 AM 52.5250 -9.2440 100° East 514 592 37,000  Level FlightAware ADS-B
Thu 05:48:52 AM 52.5090 -9.0910 100° East 512 589 37,000  Level FlightAware ADS-B
Thu 05:49:22 AM 52.4960 -8.9750 100° East 511 588 37,000  Level FlightAware ADS-B
Thu 05:49:59 AM 52.4810 -8.8380 100° East 512 589 37,000  Level FlightAware ADS-B
Thu 05:50:43 AM 52.4620 -8.6630 100° East 515 593 37,000  Level FlightAware ADS-B
Thu 05:51:15 AM 52.4480 -8.5430 101° East 516 594 37,000  Level FlightAware ADS-B
Thu 05:51:50 AM 52.4322 -8.4018 101° East 1 1 37,000  Level FlightAware UK
Thu 05:51:50 AM 52.4330 -8.4080 101° East 516 594 37,000  Level FlightAware ADS-B
Thu 05:52:20 AM 52.4188 -8.2858 101° East 1 1 37,000  Level FlightAware UK
Thu 05:52:26 AM 52.4180 -8.2760 101° East 518 596 37,000  Level FlightAware ADS-B
Thu 05:53:00 AM 52.4020 -8.1390 101° East 519 597 37,000  Level FlightAware ADS-B
Thu 05:53:35 AM 52.3860 -8.0090 101° East 518 596 37,000  Level FlightAware ADS-B
Thu 05:54:05 AM 52.3720 -7.8910 101° East 516 594 37,000  Level FlightAware ADS-B
Thu 05:54:49 AM 52.3520 -7.7170 101° East 515 593 37,000  Level FlightAware ADS-B
Thu 05:55:20 AM 52.3366 -7.5957 101° East 1 1 37,000  Level FlightAware UK
Thu 05:55:20 AM 52.3380 -7.6090 101° East 513 590 37,000  Level FlightAware ADS-B
Thu 05:55:50 AM 52.3228 -7.4816 101° East 1 1 37,000  Level FlightAware UK
Thu 05:55:57 AM 52.3210 -7.4710 101° East 515 593 37,000  Level FlightAware ADS-B
Thu 05:56:26 AM 52.3070 -7.3580 101° East 519 597 37,000  Level FlightAware ADS-B
Thu 05:57:05 AM 52.2880 -7.2030 101° East 519 597 37,000  Level FlightAware ADS-B
Thu 05:57:40 AM 52.2710 -7.0670 101° East 522 601 37,000  Level FlightAware ADS-B
Thu 05:58:15 AM 52.2540 -6.9330 102° East 522 601 37,000  Level FlightAware ADS-B
Thu 05:58:50 AM 52.2370 -6.7980 102° East 522 601 37,000  Level FlightAware ADS-B
Thu 05:59:21 AM 52.2203 -6.6727 102° East 502 578 37,000  Level FlightAware UK
Thu 05:59:26 AM 52.2190 -6.6630 102° East 522 601 37,000  Level FlightAware ADS-B
Thu 05:59:59 AM 52.2010 -6.5260 102° East 521 600 37,000  Level FlightAware ADS-B
Thu 06:00:21 AM 52.1899 -6.4414 102° East 500 575 37,000  Level FlightAware UK
Thu 06:00:57 AM 52.1715 -6.3031 102° East 500 575 37,000  Level FlightAware UK
Thu 06:01:04 AM 52.1680 -6.2760 102° East 521 600 37,000  Level FlightAware ADS-B
Thu 06:01:40 AM 52.1500 -6.1410 102° East 522 601 37,000  Level FlightAware ADS-B
Thu 06:02:16 AM 52.1300 -6.0010 103° East 522 601 37,000  Level FlightAware ADS-B
Thu 06:02:47 AM 52.1140 -5.8840 103° East 523 602 37,000  Level FlightAware ADS-B
Thu 06:02:51 AM 52.1120 -5.8680 101° East 523 602 37,000  Level FlightAware ADS-B
Thu 06:03:27 AM 52.0930 -5.7277 101° East 498 573 37,000  Level FlightAware UK
Thu 06:03:59 AM 52.0790 -5.6250 101° East 525 604 37,000  Level FlightAware ADS-B
Thu 06:04:32 AM 52.0580 -5.4800 103° East 525 604 37,000  Level FlightAware ADS-B
Thu 06:05:04 AM 52.0440 -5.3530 103° East 531 611 37,000  Level FlightAware ADS-B
Thu 06:05:09 AM 52.0422 -5.3334 103° East 496 571 37,000  Level FlightAware UK
Thu 06:05:40 AM 52.0290 -5.2130 103° East 532 612 37,000  Level FlightAware ADS-B
Thu 06:05:45 AM 52.0266 -5.1923 103° East 496 571 37,000  Level FlightAware UK
Thu 06:06:16 AM 52.0130 -5.0710 100° East 531 611 37,000  Level FlightAware ADS-B
Thu 06:07:00 AM 51.9930 -4.9010 101° East 533 613 37,000  Level FlightAware ADS-B
Thu 06:07:33 AM 51.9771 -4.7685 101° East 498 573 37,000  Level FlightAware UK
Thu 06:07:36 AM 51.9760 -4.7590 101° East 532 612 37,000  Level FlightAware ADS-B
Thu 06:08:09 AM 51.9597 -4.6276 101° East 498 573 37,000  Level FlightAware UK
Thu 06:08:10 AM 51.9590 -4.6230 101° East 533 613 37,000  Level FlightAware ADS-B
Thu 06:08:44 AM 51.9430 -4.4900 101° East 533 613 37,000  Level FlightAware ADS-B
Thu 06:09:21 AM 51.9260 -4.3520 101° East 533 613 37,000  Level FlightAware ADS-B
Thu 06:09:54 AM 51.9090 -4.2200 102° East 534 615 37,000  Level FlightAware ADS-B
Thu 06:10:30 AM 51.8910 -4.0780 102° East 535 616 37,000  Level FlightAware ADS-B
Thu 06:10:33 AM 51.8895 -4.0644 102° East 500 575 37,000  Level FlightAware UK
Thu 06:11:00 AM 51.8760 -3.9580 102° East 535 616 37,000  Level FlightAware ADS-B
Thu 06:11:03 AM 51.8745 -3.9460 102° East 500 575 37,000  Level FlightAware UK
Thu 06:11:33 AM 51.8594 -3.8283 102° East 500 575 37,000  Level FlightAware UK
Thu 06:11:42 AM 51.8590 -3.8260 102° East 536 617 37,000  Level FlightAware ADS-B
Thu 06:12:18 AM 51.8370 -3.6520 101° East 536 617 37,000  Level FlightAware ADS-B
Thu 06:12:51 AM 51.8210 -3.5300 102° East 536 617 37,000  Level FlightAware ADS-B
Thu 06:13:25 AM 51.8019 -3.3887 102° East 537 618 37,000  Level FlightAware ADS-B
Thu 06:14:01 AM 51.7833 -3.2487 102° East 537 618 37,000  Level FlightAware ADS-B
Thu 06:14:33 AM 51.7665 -3.1237 102° East 536 617 37,000  Level FlightAware ADS-B
Thu 06:15:05 AM 51.7496 -3.0003 102° East 536 617 37,000  Level FlightAware ADS-B
Thu 06:15:41 AM 51.7302 -2.8592 102° East 536 617 37,000  Level FlightAware ADS-B
Thu 06:16:15 AM 51.7123 -2.7293 102° East 536 617 37,000  Level FlightAware ADS-B
Thu 06:16:47 AM 51.6948 -2.6043 103° East 536 617 37,000  Level FlightAware ADS-B
Thu 06:17:17 AM 51.6781 -2.4857 103° East 536 617 37,000  Level FlightAware ADS-B
Thu 06:17:48 AM 51.6614 -2.3677 103° East 536 617 37,000  Level FlightAware ADS-B
Thu 06:18:19 AM 51.6440 -2.2458 103° East 536 617 37,000  Level FlightAware ADS-B
Thu 06:18:51 AM 51.6260 -2.1210 103° East 536 617 37,000  Level FlightAware ADS-B
Thu 06:19:22 AM 51.6086 -2.0011 103° East 535 616 37,000  Level FlightAware ADS-B
Thu 06:19:56 AM 51.5894 -1.8704 103° East 536 617 37,000  Level FlightAware ADS-B
Thu 06:20:27 AM 51.5715 -1.7490 103° East 535 616 37,000  Level FlightAware ADS-B
Thu 06:20:58 AM 51.5543 -1.6326 103° East 535 616 37,000  Level FlightAware ADS-B
Thu 06:21:29 AM 51.5360 -1.5103 103° East 536 617 37,000  Level FlightAware ADS-B
Thu 06:22:03 AM 51.5161 -1.3790 104° East 535 616 37,000  Level FlightAware ADS-B
Thu 06:22:34 AM 51.4986 -1.2612 103° East 537 618 37,000  Level FlightAware ADS-B
Thu 06:23:03 AM 51.4847 -1.1478 101° East 537 618 37,000  Level FlightAware ADS-B
Thu 06:23:37 AM 51.4722 -1.0149 99° East 539 620 37,000  Level FlightAware ADS-B
Thu 06:24:10 AM 51.4618 -0.8848 97° East 538 619 37,000  Level FlightAware ADS-B
Thu 06:24:41 AM 51.4516 -0.7607 97° East 537 618 37,000  Level FlightAware ADS-B
Thu 06:25:12 AM 51.4411 -0.6379 98° East 537 618 37,000  Level FlightAware ADS-B
Thu 06:25:43 AM 51.4304 -0.5170 98° East 536 617 37,000  Level FlightAware ADS-B
Thu 06:26:14 AM 51.4192 -0.3961 98° East 536 617 37,000  Level FlightAware ADS-B
Thu 06:26:45 AM 51.4079 -0.2761 99° East 536 617 37,000  Level FlightAware ADS-B
Thu 06:27:17 AM 51.3960 -0.1509 99° East 535 616 37,000  Level FlightAware ADS-B
Thu 06:27:47 AM 51.3845 -0.0313 99° East 534 615 37,000  Level FlightAware ADS-B
Thu 06:28:17 AM 51.3731 0.0863 99° East 533 613 37,000  Level FlightAware ADS-B
Thu 06:28:48 AM 51.3613 0.2060 99° East 533 613 37,000  Level FlightAware ADS-B
Thu 06:29:19 AM 51.3495 0.3248 99° East 533 613 37,000  Level FlightAware ADS-B
Thu 06:29:57 AM 51.3349 0.4720 99° East 533 613 37,000  Level FlightAware ADS-B
Thu 06:30:32 AM 51.3212 0.6074 99° East 533 613 37,000  Level FlightAware ADS-B
Thu 06:31:03 AM 51.3087 0.7300 99° East 532 612 37,000  Level FlightAware ADS-B
Thu 06:31:35 AM 51.2960 0.8543 99° East 531 611 37,000  Level FlightAware ADS-B
Thu 06:32:07 AM 51.2832 0.9765 99° East 530 610 37,000  Level FlightAware ADS-B
Thu 06:32:39 AM 51.2702 1.0993 100° East 529 609 37,000  Level FlightAware ADS-B
Thu 06:33:10 AM 51.2580 1.2170 99° East 528 608 37,000  Level FlightAware ADS-B
Thu 06:33:47 AM 51.2380 1.3570 103° East 524 603 37,000  Level FlightAware ADS-B
Thu 06:34:22 AM 51.2080 1.4780 112° Southeast 521 600 37,000  Level FlightAware ADS-B
Thu 06:34:52 AM 51.1770 1.5850 115° Southeast 521 600 37,000  Level FlightAware ADS-B
Thu 06:35:26 AM 51.1410 1.7060 115° Southeast 522 601 37,000  Level FlightAware ADS-B
Thu 06:36:05 AM 51.1040 1.8380 115° Southeast 523 602 37,000  Level FlightAware ADS-B
Thu 06:36:07 AM 51.1007 1.8471 115° Southeast 496 571 37,000  Level FlightAware UK
Thu 06:36:40 AM 51.0680 1.9640 114° Southeast 522 601 37,000  Level FlightAware ADS-B
Thu 06:37:17 AM 51.0310 2.0930 114° Southeast 523 602 37,000  Level FlightAware ADS-B
Thu 06:37:48 AM 51.0010 2.1990 114° Southeast 524 603 37,000  Level FlightAware ADS-B
Thu 06:38:23 AM 50.9660 2.3220 114° Southeast 523 602 37,000  Level FlightAware ADS-B
Thu 06:39:01 AM 50.9277 2.4567 114° Southeast 496 571 37,000  Level FlightAware UK
Thu 06:39:01 AM 50.9280 2.4550 114° Southeast 524 603 37,000  Level FlightAware ADS-B
Thu 06:39:31 AM 50.8974 2.5620 114° Southeast 496 571 37,000  Level FlightAware UK
Thu 06:39:37 AM 50.8910 2.5840 114° Southeast 524 603 37,000  Level FlightAware ADS-B
Thu 06:40:10 AM 50.8580 2.6930 116° Southeast 524 603 37,000  Level FlightAware ADS-B
Thu 06:40:45 AM 50.8210 2.8150 116° Southeast 523 602 37,000  Level FlightAware ADS-B
Thu 06:41:29 AM 50.7770 2.9630 115° Southeast 523 602 37,000  Level FlightAware ADS-B
Thu 06:41:59 AM 50.7450 3.0680 116° Southeast 524 603 37,000  Level FlightAware ADS-B
Thu 06:42:39 AM 50.7040 3.2050 115° Southeast 523 602 37,000  Level FlightAware ADS-B
Thu 06:43:13 AM 50.6663 3.3284 115° Southeast 498 573 37,000  Level FlightAware UK
Thu 06:43:14 AM 50.6670 3.3240 115° Southeast 522 601 37,000  Level FlightAware ADS-B
Thu 06:43:44 AM 50.6360 3.4260 116° Southeast 523 602 37,000  Level FlightAware ADS-B
Thu 06:44:19 AM 50.5980 3.5480 116° Southeast 524 603 37,000  Level FlightAware ADS-B
Thu 06:44:54 AM 50.5630 3.6640 115° Southeast 523 602 37,000  Level FlightAware ADS-B
Thu 06:45:29 AM 50.5240 3.7870 116° Southeast 522 601 37,000  Level FlightAware ADS-B
Thu 06:46:04 AM 50.4870 3.9070 116° Southeast 522 601 37,000  Level FlightAware ADS-B
Thu 06:46:44 AM 50.4450 4.0410 116° Southeast 518 596 37,000  Level FlightAware ADS-B
Thu 06:47:14 AM 50.4130 4.1420 116° Southeast 518 596 37,000  Level FlightAware ADS-B
Thu 06:47:49 AM 50.3750 4.2610 116° Southeast 518 596 37,000  Level FlightAware ADS-B
Thu 06:47:56 AM 50.3669 4.2905 116° Southeast 500 575 37,000  Level FlightAware UK
Thu 06:48:24 AM 50.3370 4.3800 117° Southeast 519 597 37,000  Level FlightAware ADS-B
Thu 06:48:59 AM 50.3030 4.4880 116° Southeast 518 596 37,000  Level FlightAware ADS-B
Thu 06:49:34 AM 50.2650 4.6050 117° Southeast 517 595 37,000  Level FlightAware ADS-B
Thu 06:50:20 AM 50.2097 4.7720 117° Southeast 1 1 37,000  Level FlightAware UK
Thu 06:50:51 AM 50.1770 4.8750 117° Southeast 521 600 37,000  Level FlightAware ADS-B
Thu 06:51:26 AM 50.1390 4.9920 117° Southeast 521 600 37,000  Level FlightAware ADS-B
Thu 06:52:01 AM 50.1010 5.1090 117° Southeast 521 600 37,000  Level FlightAware ADS-B
Thu 06:52:37 AM 50.0660 5.2140 117° Southeast 521 600 37,000  Level FlightAware ADS-B
Thu 06:53:16 AM 50.0180 5.3600 117° Southeast 521 600 37,000  Level FlightAware ADS-B
Thu 06:53:51 AM 49.9840 5.4620 117° Southeast 520 598 37,000  Level FlightAware ADS-B
Thu 06:54:21 AM 49.9470 5.5730 117° Southeast 521 600 37,000  Level FlightAware ADS-B
Thu 06:54:56 AM 49.9090 5.6860 118° Southeast 520 598 37,000  Level FlightAware ADS-B
Thu 06:55:31 AM 49.8690 5.8050 118° Southeast 520 598 37,000  Level FlightAware ADS-B
Thu 06:56:11 AM 49.8230 5.9380 118° Southeast 521 600 37,000  Level FlightAware ADS-B
Thu 06:56:46 AM 49.7890 6.0400 117° Southeast 522 601 37,000  Level FlightAware ADS-B
Thu 06:57:16 AM 49.7520 6.1480 118° Southeast 522 601 37,000  Level FlightAware ADS-B
Thu 06:57:52 AM 49.7160 6.2530 118° Southeast 522 601 37,000  Level FlightAware ADS-B
Thu 06:58:27 AM 49.6750 6.3730 118° Southeast 522 601 37,000  Level FlightAware ADS-B
Thu 06:59:02 AM 49.6320 6.4950 119° Southeast 523 602 37,000  Level FlightAware ADS-B
Thu 06:59:39 AM 49.5880 6.6230 118° Southeast 523 602 37,000  Level FlightAware ADS-B
Thu 06:59:59 AM 49.5660 6.6860 118° Southeast 523 602 37,000  Level FlightAware ADS-B
Thu 07:01:08 AM 49.4910 6.8990 118° Southeast 520 598 37,000  Level FlightAware ADS-B
Thu 07:01:38 AM 49.4550 7.0010 118° Southeast 521 600 37,000  Level FlightAware ADS-B
Thu 07:02:18 AM 49.4050 7.1400 119° Southeast 525 604 37,000  Level FlightAware ADS-B
Thu 07:02:49 AM 49.3690 7.2410 119° Southeast 525 604 37,000  Level FlightAware ADS-B
Thu 07:03:03 AM 49.3520 7.2890 119° Southeast 525 604 37,000  Level FlightAware ADS-B
Thu 07:04:19 AM 49.2650 7.5300 119° Southeast 521 600 37,000  Level FlightAware ADS-B
Thu 07:05:04 AM 49.2120 7.6780 119° Southeast 521 600 37,000  Level FlightAware ADS-B
Thu 07:05:44 AM 49.1650 7.8050 119° Southeast 525 604 37,000  Level FlightAware ADS-B
Thu 07:06:24 AM 49.1170 7.9360 119° Southeast 524 603 37,000  Level FlightAware ADS-B
Thu 07:06:54 AM 49.0810 8.0340 119° Southeast 524 603 37,000  Level FlightAware ADS-B
Thu 07:07:34 AM 49.0350 8.1600 119° Southeast 523 602 37,000  Level FlightAware ADS-B
Thu 07:08:09 AM 48.9920 8.2750 120° Southeast 519 597 37,000  Level FlightAware ADS-B
Thu 07:08:44 AM 48.9450 8.3780 125° Southeast 521 600 37,000  Level FlightAware ADS-B
Thu 07:09:19 AM 48.8880 8.4730 132° Southeast 514 592 37,000  Level FlightAware ADS-B
Thu 07:10:26 AM 48.7750 8.6530 134° Southeast 519 597 37,000  Level FlightAware ADS-B
Thu 07:11:16 AM 48.6950 8.7800 134° Southeast 513 590 37,000  Level FlightAware ADS-B
Thu 07:11:54 AM 48.6390 8.8680 134° Southeast 518 596 37,000  Level FlightAware ADS-B
Thu 07:12:28 AM 48.5720 8.9720 134° Southeast 519 597 37,000  Level FlightAware ADS-B
Thu 07:13:00 AM 48.5170 9.0570 134° Southeast 519 597 37,000  Level FlightAware ADS-B
Thu 07:13:36 AM 48.4590 9.1480 134° Southeast 519 597 37,000  Level FlightAware ADS-B
Thu 07:14:14 AM 48.3990 9.2410 134° Southeast 515 593 37,000  Level FlightAware ADS-B
Thu 07:14:48 AM 48.3390 9.3330 134° Southeast 517 595 37,000  Level FlightAware ADS-B
Thu 07:15:28 AM 48.2700 9.4380 135° Southeast 523 602 37,000  Level FlightAware ADS-B
Thu 07:16:06 AM 48.2000 9.5340 138° Southeast 523 602 37,000  Level FlightAware ADS-B
Thu 07:16:42 AM 48.1360 9.6170 139° Southeast 524 603 37,000  Level FlightAware ADS-B
Thu 07:17:23 AM 48.0610 9.7130 139° Southeast 524 603 37,000  Level FlightAware ADS-B
Thu 07:18:02 AM 47.9910 9.8020 140° Southeast 525 604 37,000  Level FlightAware ADS-B
Thu 07:18:38 AM 47.9210 9.8920 139° Southeast 526 605 37,000  Level FlightAware ADS-B
Thu 07:19:16 AM 47.8500 9.9810 140° Southeast 526 605 37,000  Level FlightAware ADS-B
Thu 07:19:52 AM 47.7810 10.0620 142° Southeast 526 605 37,000  Level FlightAware ADS-B
Thu 07:20:00 AM 47.7660 10.0790 143° Southeast 526 605 37,000  Level FlightAware ADS-B
Thu 07:21:02 AM 47.6470 10.2100 143° Southeast 521 600 37,000  Level FlightAware ADS-B
Thu 07:21:42 AM 47.5700 10.2940 144° Southeast 521 600 37,000  Level FlightAware ADS-B
Thu 07:22:18 AM 47.5000 10.3710 143° Southeast 522 601 37,000  Level FlightAware ADS-B
Thu 07:22:52 AM 47.4320 10.4450 144° Southeast 529 609 37,000  Level FlightAware ADS-B
Thu 07:24:01 AM 47.2870 10.5700 150° Southeast 528 608 37,000  Level FlightAware ADS-B
Thu 07:24:38 AM 47.2040 10.6360 152° Southeast 527 606 37,000  Level FlightAware ADS-B
Thu 07:25:10 AM 47.1340 10.6890 153° Southeast 529 609 37,000  Level FlightAware ADS-B
Thu 07:25:48 AM 47.0630 10.7810 139° Southeast 533 613 37,000  Level FlightAware ADS-B
Thu 07:26:21 AM 47.0150 10.8710 128° Southeast 534 615 37,000  Level FlightAware ADS-B
Thu 07:27:04 AM 46.9490 10.9970 127° Southeast 535 616 37,000  Level FlightAware ADS-B
Thu 07:27:37 AM 46.9020 11.0870 127° Southeast 535 616 37,000  Level FlightAware ADS-B
Thu 07:28:15 AM 46.8420 11.1990 128° Southeast 534 615 37,000  Level FlightAware ADS-B
Thu 07:28:48 AM 46.7950 11.2880 128° Southeast 534 615 37,000  Level FlightAware ADS-B
Thu 07:29:25 AM 46.7380 11.3950 128° Southeast 534 615 37,000  Level FlightAware ADS-B
Thu 07:29:57 AM 46.6870 11.4890 128° Southeast 533 613 37,000  Level FlightAware ADS-B
Thu 07:30:35 AM 46.6280 11.5980 128° Southeast 532 612 37,000  Level FlightAware ADS-B
Thu 07:31:08 AM 46.5790 11.6890 128° Southeast 531 611 37,000  Level FlightAware ADS-B
Thu 07:31:46 AM 46.5210 11.7960 128° Southeast 531 611 37,000  Level FlightAware ADS-B
Thu 07:32:20 AM 46.4740 11.8820 128° Southeast 531 611 37,000  Level FlightAware ADS-B
Thu 07:32:56 AM 46.4140 11.9910 129° Southeast 531 611 37,000  Level FlightAware ADS-B
Thu 07:33:34 AM 46.3560 12.0970 128° Southeast 530 610 37,000  Level FlightAware ADS-B
Thu 07:34:07 AM 46.3080 12.1850 128° Southeast 531 611 37,000  Level FlightAware ADS-B
Thu 07:34:45 AM 46.2520 12.2850 129° Southeast 531 611 37,000  Level FlightAware ADS-B
Thu 07:35:22 AM 46.1920 12.3940 128° Southeast 531 611 37,000  Level FlightAware ADS-B
Thu 07:35:55 AM 46.1410 12.4860 129° Southeast 530 610 37,000  Level FlightAware ADS-B
Thu 07:36:38 AM 46.0790 12.5970 129° Southeast 525 604 37,000  Level FlightAware ADS-B
Thu 07:37:13 AM 46.0230 12.6970 129° Southeast 525 604 37,000  Level FlightAware ADS-B
Thu 07:37:49 AM 45.9690 12.7920 129° Southeast 525 604 37,000  Level FlightAware ADS-B
Thu 07:38:23 AM 45.9150 12.8870 129° Southeast 525 604 37,000  Level FlightAware ADS-B
Thu 07:38:59 AM 45.8580 12.9880 129° Southeast 531 611 37,000  Level FlightAware ADS-B
Thu 07:39:33 AM 45.8080 13.0770 129° Southeast 531 611 37,000  Level FlightAware ADS-B
Thu 07:39:54 AM 45.7740 13.1370 129° Southeast 530 610 37,000  Level FlightAware ADS-B
Thu 07:41:11 AM 45.6760 13.3070 129° Southeast 530 610 37,000  Level FlightAware ADS-B
Thu 07:41:43 AM 45.6020 13.4360 129° Southeast 530 610 37,000  Level FlightAware ADS-B
Thu 07:42:23 AM 45.5420 13.5390 130° Southeast 531 611 37,000  Level FlightAware ADS-B
Thu 07:42:38 AM 45.5180 13.5810 129° Southeast 531 611 37,000  Level FlightAware ADS-B
Thu 07:43:40 AM 45.4230 13.7450 129° Southeast 531 611 37,000  Level FlightAware ADS-B
Thu 07:44:22 AM 45.3590 13.8530 130° Southeast 532 612 37,000  Level FlightAware ADS-B
Thu 07:44:55 AM 45.3050 13.9460 130° Southeast 530 610 37,000  Level FlightAware ADS-B
Thu 07:45:36 AM 45.2430 14.0510 130° Southeast 530 610 37,000  Level FlightAware ADS-B
Thu 07:46:17 AM 45.1790 14.1590 130° Southeast 530 610 37,000  Level FlightAware ADS-B
Thu 07:46:45 AM 45.1340 14.2340 130° Southeast 530 610 37,000  Level FlightAware ADS-B
Thu 07:47:26 AM 45.0710 14.3400 130° Southeast 530 610 37,000  Level FlightAware ADS-B
Thu 07:48:07 AM 45.0010 14.4570 130° Southeast 530 610 37,000  Level FlightAware ADS-B
Thu 07:48:43 AM 44.9440 14.5530 130° Southeast 524 603 37,000  Level FlightAware ADS-B
Thu 07:49:22 AM 44.8850 14.6490 131° Southeast 529 609 37,000  Level FlightAware ADS-B
Thu 07:49:53 AM 44.8340 14.7350 130° Southeast 529 609 37,000  Level FlightAware ADS-B
Thu 07:50:33 AM 44.7680 14.8430 131° Southeast 523 602 37,000  Level FlightAware ADS-B
Thu 07:51:15 AM 44.7030 14.9500 130° Southeast 524 603 37,000  Level FlightAware ADS-B
Thu 07:51:52 AM 44.6460 15.0420 131° Southeast 525 604 37,000  Level FlightAware ADS-B
Thu 07:52:22 AM 44.6030 15.1120 131° Southeast 526 605 37,000  Level FlightAware ADS-B
Thu 07:53:01 AM 44.5350 15.2240 130° Southeast 525 604 37,000  Level FlightAware ADS-B
Thu 07:53:30 AM 44.4920 15.2930 131° Southeast 526 605 37,000  Level FlightAware ADS-B
Thu 07:54:15 AM 44.4120 15.4220 131° Southeast 526 605 37,000  Level FlightAware ADS-B
Thu 07:54:52 AM 44.3620 15.5020 131° Southeast 526 605 37,000  Level FlightAware ADS-B
Thu 07:55:25 AM 44.3020 15.5990 131° Southeast 525 604 37,000  Level FlightAware ADS-B
Thu 07:56:00 AM 44.2430 15.6930 131° Southeast 526 605 37,000  Level FlightAware ADS-B
Thu 07:56:42 AM 44.1780 15.7980 131° Southeast 531 611 37,000  Level FlightAware ADS-B
Thu 07:57:19 AM 44.1160 15.8970 131° Southeast 531 611 37,000  Level FlightAware ADS-B
Thu 07:57:55 AM 44.0590 15.9880 131° Southeast 530 610 37,000  Level FlightAware ADS-B
Thu 07:58:29 AM 44.0020 16.0770 132° Southeast 530 610 37,000  Level FlightAware ADS-B
Thu 07:59:05 AM 43.9440 16.1690 131° Southeast 530 610 37,000  Level FlightAware ADS-B
Thu 07:59:42 AM 43.8840 16.2640 131° Southeast 530 610 37,000  Level FlightAware ADS-B
Thu 07:59:58 AM 43.8580 16.3030 133° Southeast 529 609 37,000  Level FlightAware ADS-B
Thu 08:01:14 AM 43.7360 16.4950 131° Southeast 527 606 37,000  Level FlightAware ADS-B
Thu 08:01:50 AM 43.6820 16.5780 132° Southeast 526 605 37,000  Level FlightAware ADS-B
Thu 08:02:25 AM 43.6200 16.6750 131° Southeast 526 605 37,000  Level FlightAware ADS-B
Thu 08:02:52 AM 43.5780 16.7390 132° Southeast 526 605 37,000  Level FlightAware ADS-B
Thu 08:03:58 AM 43.4920 16.8720 132° Southeast 529 609 37,000  Level FlightAware ADS-B
Thu 08:04:41 AM 43.3970 17.0170 132° Southeast 530 610 37,000  Level FlightAware ADS-B
Thu 08:05:17 AM 43.3380 17.1070 132° Southeast 529 609 37,000  Level FlightAware ADS-B
Thu 08:05:56 AM 43.2760 17.2020 132° Southeast 528 608 37,000  Level FlightAware ADS-B
Thu 08:06:29 AM 43.2230 17.2810 133° Southeast 528 608 37,000  Level FlightAware ADS-B
Thu 08:07:06 AM 43.1610 17.3760 132° Southeast 528 608 37,000  Level FlightAware ADS-B
Thu 08:07:37 AM 43.1090 17.4540 132° Southeast 528 608 37,000  Level FlightAware ADS-B
Thu 08:08:13 AM 43.0500 17.5420 133° Southeast 528 608 37,000  Level FlightAware ADS-B
Thu 08:08:49 AM 42.9920 17.6300 132° Southeast 528 608 37,000  Level FlightAware ADS-B
Thu 08:09:21 AM 42.9390 17.7090 132° Southeast 528 608 37,000  Level FlightAware ADS-B
Thu 08:09:59 AM 42.8770 17.8010 133° Southeast 527 606 37,000  Level FlightAware ADS-B
Thu 08:10:36 AM 42.8150 17.8930 133° Southeast 527 606 37,000  Level FlightAware ADS-B
Thu 08:11:16 AM 42.7640 17.9680 133° Southeast 526 605 37,000  Level FlightAware ADS-B
Thu 08:11:52 AM 42.6970 18.0680 132° Southeast 525 604 37,000  Level FlightAware ADS-B
Thu 08:12:23 AM 42.6550 18.1300 133° Southeast 523 602 37,000  Level FlightAware ADS-B
Thu 08:13:02 AM 42.5710 18.2480 134° Southeast 521 600 37,000  Level FlightAware ADS-B
Thu 08:13:38 AM 42.5120 18.3260 136° Southeast 519 597 37,000  Level FlightAware ADS-B
Thu 08:14:12 AM 42.4540 18.4040 135° Southeast 517 595 37,000  Level FlightAware ADS-B
Thu 08:14:46 AM 42.3950 18.4840 135° Southeast 516 594 37,000  Level FlightAware ADS-B
Thu 08:15:20 AM 42.3380 18.5610 135° Southeast 515 593 37,000  Level FlightAware ADS-B
Thu 08:15:58 AM 42.2740 18.6480 135° Southeast 514 592 37,000  Level FlightAware ADS-B
Thu 08:16:30 AM 42.2220 18.7170 135° Southeast 514 592 37,000  Level FlightAware ADS-B
Thu 08:17:06 AM 42.1590 18.8010 135° Southeast 514 592 37,000  Level FlightAware ADS-B
Thu 08:17:48 AM 42.0880 18.8960 135° Southeast 514 592 37,000  Level FlightAware ADS-B
Thu 08:18:20 AM 42.0340 18.9680 135° Southeast 515 593 37,000  Level FlightAware ADS-B
Thu 08:19:00 AM 41.9650 19.0590 136° Southeast 516 594 37,000  Level FlightAware ADS-B
Thu 08:19:32 AM 41.9120 19.1290 135° Southeast 515 593 37,000  Level FlightAware ADS-B
Thu 08:19:52 AM 41.8790 19.1720 136° Southeast 515 593 37,000  Level FlightAware ADS-B
Thu 08:20:46 AM 41.8080 19.2660 135° Southeast 514 592 37,000  Level FlightAware ADS-B
Thu 08:21:46 AM 41.7050 19.4000 136° Southeast 515 593 37,000  Level FlightAware ADS-B
Thu 08:22:29 AM 41.6100 19.5240 136° Southeast 516 594 37,000  Level FlightAware ADS-B
Thu 08:23:01 AM 41.5570 19.5940 135° Southeast 517 595 37,000  Level FlightAware ADS-B
Thu 08:23:37 AM 41.4950 19.6740 136° Southeast 518 596 37,000  Level FlightAware ADS-B
Thu 08:24:09 AM 41.4400 19.7450 136° Southeast 517 595 37,000  Level FlightAware ADS-B
Thu 08:25:15 AM 41.3260 19.8910 136° Southeast 516 594 37,000  Level FlightAware ADS-B
Thu 08:25:49 AM 41.2660 19.9680 136° Southeast 514 592 37,000  Level FlightAware ADS-B
Thu 08:26:27 AM 41.2020 20.0510 136° Southeast 512 589 37,000  Level FlightAware ADS-B
Thu 08:27:05 AM 41.1360 20.1340 137° Southeast 512 589 37,000  Level FlightAware ADS-B
Thu 08:27:51 AM 41.0620 20.2280 136° Southeast 511 588 37,000  Level FlightAware ADS-B
Thu 08:28:27 AM 40.9960 20.3120 136° Southeast 509 586 37,000  Level FlightAware ADS-B
Thu 08:29:03 AM 40.9390 20.3840 136° Southeast 509 586 37,000  Level FlightAware ADS-B
Thu 08:29:31 AM 40.8900 20.4460 136° Southeast 509 586 37,000  Level FlightAware ADS-B
Thu 08:30:11 AM 40.8230 20.5300 136° Southeast 509 586 37,000  Level FlightAware ADS-B
Thu 08:30:43 AM 40.7670 20.6000 137° Southeast 509 586 37,000  Level FlightAware ADS-B
Thu 08:31:19 AM 40.7040 20.6790 136° Southeast 509 586 37,000  Level FlightAware ADS-B
Thu 08:31:55 AM 40.6430 20.7550 137° Southeast 509 586 37,000  Level FlightAware ADS-B
Thu 08:32:29 AM 40.5830 20.8300 136° Southeast 509 586 37,000  Level FlightAware ADS-B
Thu 08:33:05 AM 40.5200 20.9080 137° Southeast 510 587 37,000  Level FlightAware ADS-B
Thu 08:33:41 AM 40.4610 20.9800 137° Southeast 509 586 37,000  Level FlightAware ADS-B
Thu 08:34:17 AM 40.3960 21.0550 139° Southeast 509 586 37,000  Level FlightAware ADS-B
Thu 08:34:51 AM 40.3350 21.1240 139° Southeast 510 587 37,000  Level FlightAware ADS-B
Thu 08:35:27 AM 40.2700 21.1980 139° Southeast 509 586 37,000  Level FlightAware ADS-B
Thu 08:36:01 AM 40.2100 21.2670 139° Southeast 510 587 37,000  Level FlightAware ADS-B
Thu 08:36:33 AM 40.1530 21.3330 138° Southeast 511 588 37,000  Level FlightAware ADS-B
Thu 08:37:10 AM 40.0890 21.4060 139° Southeast 512 589 37,000  Level FlightAware ADS-B
Thu 08:37:47 AM 40.0200 21.4840 139° Southeast 513 590 37,000  Level FlightAware ADS-B
Thu 08:38:20 AM 39.9630 21.5490 139° Southeast 513 590 37,000  Level FlightAware ADS-B
Thu 08:38:56 AM 39.8980 21.6220 139° Southeast 514 592 37,000  Level FlightAware ADS-B
Thu 08:39:28 AM 39.8390 21.6890 139° Southeast 516 594 37,000  Level FlightAware ADS-B
Thu 08:39:54 AM 39.7920 21.7420 139° Southeast 516 594 37,000  Level FlightAware ADS-B
Thu 08:40:54 AM 39.7070 21.8380 139° Southeast 512 589 37,000  Level FlightAware ADS-B
Thu 08:41:32 AM 39.6140 21.9410 140° Southeast 517 595 37,000  Level FlightAware ADS-B
Thu 08:42:00 AM 39.5630 21.9980 139° Southeast 517 595 37,000  Level FlightAware ADS-B
Thu 08:42:32 AM 39.5070 22.0610 139° Southeast 516 594 37,000  Level FlightAware ADS-B
Thu 08:43:41 AM 39.3860 22.1940 140° Southeast 517 595 37,000  Level FlightAware ADS-B
Thu 08:44:12 AM 39.3250 22.2620 139° Southeast 517 595 37,000  Level FlightAware ADS-B
Thu 08:44:48 AM 39.2600 22.3330 140° Southeast 515 593 37,000  Level FlightAware ADS-B
Thu 08:45:18 AM 39.2040 22.3950 139° Southeast 515 593 37,000  Level FlightAware ADS-B
Thu 08:46:02 AM 39.1270 22.4800 139° Southeast 514 592 37,000  Level FlightAware ADS-B
Thu 08:46:34 AM 39.0670 22.5460 139° Southeast 514 592 37,000  Level FlightAware ADS-B
Thu 08:47:08 AM 39.0050 22.6130 140° Southeast 514 592 37,000  Level FlightAware ADS-B
Thu 08:47:46 AM 38.9370 22.6870 140° Southeast 514 592 37,000  Level FlightAware ADS-B
Thu 08:48:22 AM 38.8720 22.7580 140° Southeast 515 593 37,000  Level FlightAware ADS-B
Thu 08:48:54 AM 38.8130 22.8210 140° Southeast 515 593 37,000  Level FlightAware ADS-B
Thu 08:49:30 AM 38.7470 22.8930 140° Southeast 514 592 37,000  Level FlightAware ADS-B
Thu 08:50:07 AM 38.6800 22.9660 140° Southeast 514 592 37,000  Level FlightAware ADS-B
Thu 08:50:43 AM 38.6140 23.0360 140° Southeast 513 590 37,000  Level FlightAware ADS-B
Thu 08:51:23 AM 38.5420 23.1130 140° Southeast 514 592 37,000  Level FlightAware ADS-B
Thu 08:51:55 AM 38.4830 23.1760 140° Southeast 514 592 37,000  Level FlightAware ADS-B
Thu 08:52:29 AM 38.4200 23.2430 140° Southeast 513 590 37,000  Level FlightAware ADS-B
Thu 08:53:07 AM 38.3530 23.3150 140° Southeast 513 590 37,000  Level FlightAware ADS-B
Thu 08:53:39 AM 38.2930 23.3790 140° Southeast 513 590 37,000  Level FlightAware ADS-B
Thu 08:54:16 AM 38.2280 23.4480 140° Southeast 513 590 37,000  Level FlightAware ADS-B
Thu 08:54:51 AM 38.1630 23.5170 140° Southeast 511 588 37,000  Level FlightAware ADS-B
Thu 08:55:27 AM 38.0980 23.5860 140° Southeast 512 589 37,000  Level FlightAware ADS-B
Thu 08:56:01 AM 38.0360 23.6510 140° Southeast 511 588 37,000  Level FlightAware ADS-B
Thu 08:56:38 AM 37.9670 23.7230 141° Southeast 509 586 37,000  Level FlightAware ADS-B
Thu 08:57:10 AM 37.9090 23.7850 140° Southeast 509 586 37,000  Level FlightAware ADS-B
Thu 08:57:50 AM 37.8460 23.8680 134° Southeast 515 593 37,000  Level FlightAware ADS-B
Thu 08:58:21 AM 37.7980 23.9410 130° Southeast 515 593 37,000  Level FlightAware ADS-B
Thu 08:58:59 AM 37.7390 24.0290 130° Southeast 515 593 37,000  Level FlightAware ADS-B
Thu 08:59:35 AM 37.6820 24.1140 130° Southeast 515 593 37,000  Level FlightAware ADS-B
Thu 08:59:59 AM 37.6470 24.1660 130° Southeast 515 593 37,000  Level FlightAware ADS-B
Thu 09:01:30 AM 37.5280 24.3570 128° Southeast 521 600 37,000  Level FlightAware ADS-B
Thu 09:02:11 AM 37.4620 24.4900 122° Southeast 522 601 37,000  Level FlightAware ADS-B
Thu 09:02:43 AM 37.4210 24.5710 122° Southeast 522 601 37,000  Level FlightAware ADS-B
Thu 09:03:19 AM 37.3730 24.6670 122° Southeast 523 602 37,000  Level FlightAware ADS-B
Thu 09:03:57 AM 37.3250 24.7610 123° Southeast 522 601 37,000  Level FlightAware ADS-B
Thu 09:04:33 AM 37.2770 24.8560 122° Southeast 524 603 37,000  Level FlightAware ADS-B
Thu 09:05:09 AM 37.2310 24.9470 122° Southeast 525 604 37,000  Level FlightAware ADS-B
Thu 09:05:35 AM 37.1960 25.0170 122° Southeast 526 605 37,000  Level FlightAware ADS-B
Thu 09:06:42 AM 37.1090 25.1860 123° Southeast 528 608 37,000  Level FlightAware ADS-B
Thu 09:07:13 AM 37.0670 25.2680 123° Southeast 529 609 37,000  Level FlightAware ADS-B
Thu 09:07:47 AM 37.0220 25.3550 123° Southeast 529 609 37,000  Level FlightAware ADS-B
Thu 09:08:26 AM 36.9710 25.4540 123° Southeast 531 611 37,000  Level FlightAware ADS-B
Thu 09:08:59 AM 36.9260 25.5420 123° Southeast 531 611 37,000  Level FlightAware ADS-B
Thu 09:09:35 AM 36.8790 25.6320 123° Southeast 533 613 37,000  Level FlightAware ADS-B
Thu 09:10:09 AM 36.8330 25.7220 123° Southeast 535 616 37,000  Level FlightAware ADS-B
Thu 09:10:47 AM 36.7820 25.8200 123° Southeast 535 616 37,000  Level FlightAware ADS-B
Thu 09:11:22 AM 36.7430 25.8950 123° Southeast 535 616 37,000  Level FlightAware ADS-B
Thu 09:11:52 AM 36.7100 25.9570 124° Southeast 537 618 37,000  Level FlightAware ADS-B
Thu 09:12:31 AM 36.6410 26.0890 123° Southeast 536 617 37,000  Level FlightAware ADS-B
Thu 09:13:07 AM 36.5910 26.1840 123° Southeast 537 618 37,000  Level FlightAware ADS-B
Thu 09:13:36 AM 36.5560 26.2590 120° Southeast 539 620 37,000  Level FlightAware ADS-B
Thu 09:14:16 AM 36.5090 26.3720 117° Southeast 544 626 37,000  Level FlightAware ADS-B
Thu 09:14:52 AM 36.4690 26.4720 116° Southeast 544 626 37,000  Level FlightAware ADS-B
Thu 09:15:28 AM 36.4290 26.5740 116° Southeast 544 626 37,000  Level FlightAware ADS-B
Thu 09:16:08 AM 36.3840 26.6850 117° Southeast 545 627 37,000  Level FlightAware ADS-B
Thu 09:16:44 AM 36.3430 26.7860 117° Southeast 546 628 37,000  Level FlightAware ADS-B
Thu 09:17:20 AM 36.3020 26.8870 117° Southeast 545 627 37,000  Level FlightAware ADS-B
Thu 09:18:06 AM 36.2560 27.0020 116° Southeast 545 627 37,000  Level FlightAware ADS-B
Thu 09:18:48 AM 36.2030 27.1280 118° Southeast 546 628 37,000  Level FlightAware ADS-B
Thu 09:19:25 AM 36.1610 27.2310 117° Southeast 546 628 37,000  Level FlightAware ADS-B
Thu 09:19:35 AM 36.1490 27.2580 122° Southeast 546 628 37,000  Level FlightAware ADS-B
Thu 09:22:00 AM 35.9675 27.6267 121° Southeast  Level Estimated
Thu 09:23:00 AM 35.8923 27.7793 121° Southeast  Level Estimated
Thu 09:24:00 AM 35.8168 27.9317 121° Southeast  Level Estimated
Thu 09:25:00 AM 35.7412 28.0837 121° Southeast  Level Estimated
Thu 09:26:00 AM 35.6653 28.2355 122° Southeast  Level Estimated
Thu 09:27:00 AM 35.5893 28.3870 122° Southeast  Level Estimated
Thu 09:28:00 AM 35.5131 28.5382 122° Southeast  Level Estimated
Thu 09:29:05 AM 35.6070 28.6120 116° Southeast 546 628 37,000  Level FlightAware ADS-B
Thu 09:29:42 AM 35.3310 28.7760 154° Southeast 535 616 37,000  Level FlightAware ADS-B
Thu 09:30:09 AM 35.2910 28.8420 127° Southeast 533 613 37,000  Level FlightAware ADS-B
Thu 09:30:50 AM 35.2320 28.9400 126° Southeast 528 608 37,000  Level FlightAware ADS-B
Thu 09:31:27 AM 35.1850 29.0210 125° Southeast 527 606 37,000  Level FlightAware ADS-B
Thu 09:32:03 AM 35.1420 29.0960 125° Southeast 527 606 37,000  Level FlightAware ADS-B
Thu 09:32:37 AM 35.0690 29.2090 128° Southeast 525 604 37,000  Level FlightAware ADS-B
Thu 09:33:20 AM 35.0180 29.2980 125° Southeast 525 604 37,000  Level FlightAware ADS-B
Thu 09:33:56 AM 34.9760 29.3720 125° Southeast 525 604 37,000  Level FlightAware ADS-B
Thu 09:34:31 AM 34.8960 29.4930 129° Southeast 523 602 37,000  Level FlightAware ADS-B
Thu 09:35:07 AM 34.8410 29.5830 127° Southeast 523 602 37,000  Level FlightAware ADS-B
Thu 09:35:36 AM 34.8010 29.6490 126° Southeast 524 603 37,000  Level FlightAware ADS-B
Thu 09:36:12 AM 34.7450 29.7390 127° Southeast 524 603 37,000  Level FlightAware ADS-B
Thu 09:36:51 AM 34.6900 29.8280 127° Southeast 523 602 37,000  Level FlightAware ADS-B
Thu 09:37:41 AM 34.6240 29.9370 126° Southeast 523 602 37,000  Level FlightAware ADS-B
Thu 09:38:17 AM 34.5800 30.0090 127° Southeast 523 602 37,000  Level FlightAware ADS-B
Thu 09:39:11 AM 34.5000 30.1740 120° Southeast 530 610 37,000  Level FlightAware ADS-B
Thu 09:39:47 AM 34.4530 30.2720 120° Southeast 529 609 37,000  Level FlightAware ADS-B
Thu 09:40:26 AM 34.4050 30.3720 120° Southeast 527 606 37,000  Level FlightAware ADS-B
Thu 09:40:57 AM 34.3670 30.4520 120° Southeast 527 606 37,000  Level FlightAware ADS-B
Thu 09:41:36 AM 34.3180 30.5530 120° Southeast 528 608 37,000  Level FlightAware ADS-B
Thu 09:42:12 AM 34.2750 30.6410 121° Southeast 527 606 37,000  Level FlightAware ADS-B
Thu 09:42:46 AM 34.2300 30.7350 120° Southeast 527 606 37,000  Level FlightAware ADS-B
Thu 09:43:22 AM 34.1860 30.8260 120° Southeast 526 605 37,000  Level FlightAware ADS-B
Thu 09:44:06 AM 34.1310 30.9380 121° Southeast 525 604 37,000  Level FlightAware ADS-B
Thu 09:44:37 AM 34.0920 31.0180 120° Southeast 524 603 37,000  Level FlightAware ADS-B
Thu 09:45:12 AM 34.0500 31.1030 121° Southeast 524 603 37,000  Level FlightAware ADS-B
Thu 09:45:47 AM 34.0060 31.1940 120° Southeast 523 602 37,000  Level FlightAware ADS-B
Thu 09:46:22 AM 33.9620 31.2830 121° Southeast 523 602 37,000  Level FlightAware ADS-B
Thu 09:46:59 AM 33.9190 31.3700 121° Southeast 522 601 37,000  Level FlightAware ADS-B
Thu 09:47:33 AM 33.8720 31.4640 121° Southeast 521 600 37,000  Level FlightAware ADS-B
Thu 09:48:09 AM 33.8290 31.5510 121° Southeast 521 600 37,000  Level FlightAware ADS-B
Thu 09:48:44 AM 33.7850 31.6390 121° Southeast 521 600 37,000  Level FlightAware ADS-B
Thu 09:49:15 AM 33.7480 31.7150 120° Southeast 521 600 37,000  Level FlightAware ADS-B
Thu 09:49:50 AM 33.7010 31.8080 121° Southeast 520 598 37,000  Level FlightAware ADS-B
Thu 09:50:26 AM 33.6580 31.8950 121° Southeast 520 598 37,000  Level FlightAware ADS-B
Thu 09:51:00 AM 33.6140 31.9810 122° Southeast 519 597 37,000  Level FlightAware ADS-B
Thu 09:51:36 AM 33.5700 32.0680 121° Southeast 519 597 37,000  Level FlightAware ADS-B
Thu 09:52:10 AM 33.5310 32.1460 121° Southeast 519 597 37,000  Level FlightAware ADS-B
Thu 09:52:46 AM 33.4830 32.2410 121° Southeast 518 596 37,000 -269 Level FlightAware ADS-B
Thu 09:53:17 AM 33.4500 32.3070 121° Southeast 516 594 36,700 -1,183 Descending FlightAware ADS-B
Thu 09:53:57 AM 33.3940 32.4160 122° Southeast 526 605 35,600 -1,629 Descending FlightAware ADS-B
Thu 09:54:27 AM 33.3590 32.4850 121° Southeast 529 609 34,800 -1,371 Descending FlightAware ADS-B
Thu 09:55:07 AM 33.3050 32.5910 121° Southeast 536 617 34,000 -1,026 Descending FlightAware ADS-B
Thu 09:55:43 AM 33.2630 32.6740 121° Southeast 538 619 33,500 -1,029 Descending FlightAware ADS-B
Thu 09:56:17 AM 33.2180 32.7610 122° Southeast 535 616 32,800 -1,970 Descending FlightAware ADS-B
Thu 09:56:50 AM 33.1680 32.8580 122° Southeast 541 623 31,300 -2,870 Descending FlightAware ADS-B
Thu 09:57:26 AM 33.1210 32.9500 121° Southeast 537 618 29,500 -2,250 Descending FlightAware ADS-B
Thu 09:58:02 AM 33.0750 33.0320 124° Southeast 525 604 28,600 -1,833 Descending FlightAware ADS-B
Thu 09:58:38 AM 33.0240 33.1200 125° Southeast 506 582 27,300 -2,127 Descending FlightAware ADS-B
Thu 09:59:21 AM 32.9680 33.2130 126° Southeast 500 575 25,800 -2,000 Descending FlightAware ADS-B
Thu 09:59:56 AM 32.9630 33.2210 127° Southeast 495 570 24,700 -1,950 Descending FlightAware ADS-B
Thu 10:00:41 AM 32.8650 33.3890 125° Southeast 484 557 23,200 -2,000 Descending FlightAware ADS-B
Thu 10:01:20 AM 32.8150 33.4760 124° Southeast 465 535 21,900 -1,920 Descending FlightAware ADS-B
Thu 10:01:56 AM 32.7700 33.5540 124° Southeast 442 509 20,800 -1,760 Descending FlightAware ADS-B
Thu 10:02:35 AM 32.7280 33.6240 125° Southeast 408 470 19,700 -1,500 Descending FlightAware ADS-B
Thu 10:03:12 AM 32.6940 33.6810 125° Southeast 386 444 18,900 -1,437 Descending FlightAware ADS-B
Thu 10:03:46 AM 32.6590 33.7420 124° Southeast 368 423 18,000 -1,622 Descending FlightAware ADS-B
Thu 10:04:26 AM 32.6170 33.8120 125° Southeast 354 407 16,900 -1,500 Descending FlightAware ADS-B
Thu 10:05:06 AM 32.5810 33.8730 125° Southeast 344 396 16,000 -1,400 Descending FlightAware ADS-B
Thu 10:05:56 AM 32.5350 33.9520 125° Southeast 354 407 14,800 -1,432 Descending FlightAware ADS-B
Thu 10:06:34 AM 32.5030 34.0050 126° Southeast 347 399 13,900 -1,479 Descending FlightAware ADS-B
Thu 10:07:09 AM 32.4660 34.0660 126° Southeast 328 377 13,000 -1,437 Descending FlightAware ADS-B
Thu 10:07:45 AM 32.4350 34.1190 125° Southeast 312 359 12,200 -1,247 Descending FlightAware ADS-B
Thu 10:08:26 AM 32.4020 34.1740 125° Southeast 302 348 11,400 -1,120 Descending FlightAware ADS-B
Thu 10:09:00 AM 32.3750 34.2200 125° Southeast 289 333 10,800 -1,099 Descending FlightAware ADS-B
Thu 10:09:37 AM 32.3460 34.2680 126° Southeast 291 335 10,100 -1,179 Descending FlightAware ADS-B
Thu 10:09:56 AM 32.3320 34.2910 126° Southeast 288 331 9,700 -1,077 Descending FlightAware ADS-B
Thu 10:10:16 AM 32.3170 34.3160 125° Southeast 285 328 9,400 -1,024 Descending FlightAware ADS-B
Thu 10:10:37 AM 32.3020 34.3410 125° Southeast 281 323 9,000 -1,200 Descending FlightAware ADS-B
Thu 10:10:56 AM 32.2860 34.3670 126° Southeast 278 320 8,600 -1,224 Descending FlightAware ADS-B
Thu 10:11:26 AM 32.2650 34.4040 124° Southeast 271 312 8,000 -1,000 Descending FlightAware ADS-B
Thu 10:11:44 AM 32.2540 34.4210 127° Southeast 269 310 7,800 -649 Descending FlightAware ADS-B
Thu 10:12:03 AM 32.2470 34.4330 125° Southeast 267 307 7,600 -1,149 Descending FlightAware ADS-B
Thu 10:12:31 AM 32.2190 34.4820 124° Southeast 268 308 6,900 -1,256 Descending FlightAware ADS-B
Thu 10:12:46 AM 32.2110 34.4980 121° Southeast 271 312 6,700 -900 Descending FlightAware ADS-B
Thu 10:13:11 AM 32.1930 34.5310 123° Southeast 273 314 6,300 -667 Descending FlightAware ADS-B
Thu 10:13:31 AM 32.1790 34.5570 122° Southeast 272 313 6,200 -293 Descending FlightAware ADS-B
Thu 10:13:52 AM 32.1670 34.5790 123° Southeast 272 313 6,100 -255 Descending FlightAware ADS-B
Thu 10:14:18 AM 32.1500 34.6100 123° Southeast 272 313 6,000 -409 Descending FlightAware ADS-B
Thu 10:14:36 AM 32.1360 34.6360 122° Southeast 271 312 5,800 -375 Descending FlightAware ADS-B
Thu 10:15:06 AM 32.1160 34.6740 122° Southeast 271 312 5,700 -429 Descending FlightAware ADS-B
Thu 10:15:18 AM 32.1070 34.6910 122° Southeast 267 307 5,500 -686 Descending FlightAware ADS-B
Thu 10:15:41 AM 32.0940 34.7160 122° Southeast 255 293 5,300 -439 Descending FlightAware ADS-B
Thu 10:15:59 AM 32.0820 34.7370 124° Southeast 236 272 5,200 -167 Descending FlightAware ADS-B
Thu 10:16:17 AM 32.0730 34.7540 122° Southeast 222 255 5,200  Level FlightAware ADS-B
Thu 10:16:41 AM 32.0590 34.7770 126° Southeast 212 244 5,200 -250 Level FlightAware ADS-B
Thu 10:17:05 AM 32.0410 34.7970 137° Southeast 209 241 5,000 -419 Descending FlightAware ADS-B
Thu 10:17:24 AM 32.0290 34.8110 135° Southeast 208 239 4,900 -375 Descending FlightAware ADS-B
Thu 10:17:53 AM 32.0100 34.8320 137° Southeast 198 228 4,700 -439 Descending FlightAware ADS-B
Thu 10:18:05 AM 32.0010 34.8430 134° Southeast 187 215 4,600 -968 Descending FlightAware ADS-B
Thu 10:18:24 AM 31.9900 34.8550 137° Southeast 184 212 4,200 -1,385 Descending FlightAware ADS-B
Thu 10:18:44 AM 31.9770 34.8700 136° Southeast 184 212 3,700 -1,200 Descending FlightAware ADS-B
Thu 10:19:04 AM 31.9720 34.8870 109° East 181 208 3,400 -900 Descending FlightAware ADS-B
Thu 10:19:24 AM 31.9750 34.9070 80° East 183 211 3,100 -1,050 Descending FlightAware ADS-B
Thu 10:19:44 AM 31.9800 34.9260 73° East 175 201 2,700 -1,143 Descending FlightAware ADS-B
Thu 10:20:06 AM 31.9850 34.9490 76° East 172 198 2,300 -938 Descending FlightAware ADS-B
Thu 10:20:16 AM 31.9890 34.9560 56° Northeast 168 193 2,200 -900 Descending FlightAware ADS-B
Thu 10:20:26 AM 31.9960 34.9620 36° Northeast 167 192 2,000 -750 Descending FlightAware ADS-B
Thu 10:20:32 AM 31.9980 34.9630 23° Northeast 164 189 2,000 -857 Level FlightAware ADS-B
Thu 10:21:01 AM 32.0190 34.9600 353° North 147 169 1,500 -923 Descending FlightAware ADS-B
Thu 10:21:11 AM 32.0230 34.9550 313° West 148 170 1,400 -545 Descending FlightAware ADS-B
Thu 10:21:23 AM 32.0260 34.9450 289° West 144 166 1,300 -162 Descending FlightAware ADS-B
Thu 10:21:48 AM 32.0280 34.9290 278° West 144 166 1,300  Level FlightAware ADS-B

Login

Don't have an account? Register now (free) for customized features, flight alerts, and more!